<?xml version="1.0" encoding="UTF-8" standalone="no" ?>
<gpx xmlns="http://www.topografix.com/GPX/1/1" xmlns:xsi="http://www.w3.org/2001/XMLSchema-instance" xsi:schemaLocation="http://www.topografix.com/GPX/1/1 http://www.topografix.com/GPX/1/1/gpx.xsd" version="1.1" creator="VisuGPX - https://www.visugpx.com">
  <metadata>
    <name>boucle Brissac Notre-Dame-du-suc</name>
    <desc><![CDATA[boucle Brissac Notre-Dame-du-suc]]></desc>
  </metadata>
  <trk>
    <name><![CDATA[17-JAN-15 15:26:12]]></name>
    <trkseg>
      <trkpt lat="43.87811" lon="3.70155">
        <ele>157.31</ele>
        <time>2015-01-17T10:16:42Z</time>
      </trkpt>
      <trkpt lat="43.87812" lon="3.70154">
        <ele>156.83</ele>
        <time>2015-01-17T10:17:12Z</time>
      </trkpt>
      <trkpt lat="43.87813" lon="3.70156">
        <ele>157.79</ele>
        <time>2015-01-17T10:17:50Z</time>
      </trkpt>
      <trkpt lat="43.87813" lon="3.70156">
        <ele>148.66</ele>
        <time>2015-01-17T10:17:53Z</time>
      </trkpt>
      <trkpt lat="43.87813" lon="3.70156">
        <ele>158.27</ele>
        <time>2015-01-17T10:17:54Z</time>
      </trkpt>
      <trkpt lat="43.87814" lon="3.70158">
        <ele>156.35</ele>
        <time>2015-01-17T10:18:16Z</time>
      </trkpt>
      <trkpt lat="43.87814" lon="3.70158">
        <ele>155.87</ele>
        <time>2015-01-17T10:18:42Z</time>
      </trkpt>
      <trkpt lat="43.87817" lon="3.70157">
        <ele>155.87</ele>
        <time>2015-01-17T10:19:15Z</time>
      </trkpt>
      <trkpt lat="43.87828" lon="3.70142">
        <ele>155.39</ele>
        <time>2015-01-17T10:19:29Z</time>
      </trkpt>
      <trkpt lat="43.87837" lon="3.70138">
        <ele>155.87</ele>
        <time>2015-01-17T10:19:36Z</time>
      </trkpt>
      <trkpt lat="43.87855" lon="3.70118">
        <ele>154.91</ele>
        <time>2015-01-17T10:19:56Z</time>
      </trkpt>
      <trkpt lat="43.87858" lon="3.70116">
        <ele>153.95</ele>
        <time>2015-01-17T10:19:59Z</time>
      </trkpt>
      <trkpt lat="43.87864" lon="3.70109">
        <ele>154.43</ele>
        <time>2015-01-17T10:20:05Z</time>
      </trkpt>
      <trkpt lat="43.87871" lon="3.7009">
        <ele>153.47</ele>
        <time>2015-01-17T10:20:14Z</time>
      </trkpt>
      <trkpt lat="43.87877" lon="3.70073">
        <ele>155.39</ele>
        <time>2015-01-17T10:20:24Z</time>
      </trkpt>
      <trkpt lat="43.87878" lon="3.70067">
        <ele>155.39</ele>
        <time>2015-01-17T10:20:28Z</time>
      </trkpt>
      <trkpt lat="43.87875" lon="3.70029">
        <ele>154.91</ele>
        <time>2015-01-17T10:20:47Z</time>
      </trkpt>
      <trkpt lat="43.87858" lon="3.70011">
        <ele>155.39</ele>
        <time>2015-01-17T10:21:03Z</time>
      </trkpt>
      <trkpt lat="43.87823" lon="3.70011">
        <ele>154.91</ele>
        <time>2015-01-17T10:21:23Z</time>
      </trkpt>
      <trkpt lat="43.87808" lon="3.70015">
        <ele>154.91</ele>
        <time>2015-01-17T10:21:33Z</time>
      </trkpt>
      <trkpt lat="43.87795" lon="3.7">
        <ele>154.91</ele>
        <time>2015-01-17T10:21:53Z</time>
      </trkpt>
      <trkpt lat="43.87786" lon="3.7">
        <ele>155.39</ele>
        <time>2015-01-17T10:21:59Z</time>
      </trkpt>
      <trkpt lat="43.87764" lon="3.69996">
        <ele>155.87</ele>
        <time>2015-01-17T10:22:18Z</time>
      </trkpt>
      <trkpt lat="43.87755" lon="3.69993">
        <ele>156.35</ele>
        <time>2015-01-17T10:22:25Z</time>
      </trkpt>
      <trkpt lat="43.87751" lon="3.69991">
        <ele>156.83</ele>
        <time>2015-01-17T10:22:28Z</time>
      </trkpt>
      <trkpt lat="43.87746" lon="3.69987">
        <ele>157.31</ele>
        <time>2015-01-17T10:22:32Z</time>
      </trkpt>
      <trkpt lat="43.87727" lon="3.69969">
        <ele>158.27</ele>
        <time>2015-01-17T10:22:52Z</time>
      </trkpt>
      <trkpt lat="43.87726" lon="3.69968">
        <ele>157.79</ele>
        <time>2015-01-17T10:22:53Z</time>
      </trkpt>
      <trkpt lat="43.8771" lon="3.6996">
        <ele>156.83</ele>
        <time>2015-01-17T10:23:04Z</time>
      </trkpt>
      <trkpt lat="43.87696" lon="3.69936">
        <ele>158.27</ele>
        <time>2015-01-17T10:23:23Z</time>
      </trkpt>
      <trkpt lat="43.87694" lon="3.69936">
        <ele>157.79</ele>
        <time>2015-01-17T10:23:48Z</time>
      </trkpt>
      <trkpt lat="43.8769" lon="3.69932">
        <ele>157.31</ele>
        <time>2015-01-17T10:24:22Z</time>
      </trkpt>
      <trkpt lat="43.87687" lon="3.69931">
        <ele>157.31</ele>
        <time>2015-01-17T10:24:25Z</time>
      </trkpt>
      <trkpt lat="43.87685" lon="3.69929">
        <ele>157.31</ele>
        <time>2015-01-17T10:24:27Z</time>
      </trkpt>
      <trkpt lat="43.87677" lon="3.69931">
        <ele>156.35</ele>
        <time>2015-01-17T10:24:35Z</time>
      </trkpt>
      <trkpt lat="43.87662" lon="3.69928">
        <ele>154.43</ele>
        <time>2015-01-17T10:24:49Z</time>
      </trkpt>
      <trkpt lat="43.87659" lon="3.69928">
        <ele>154.43</ele>
        <time>2015-01-17T10:24:51Z</time>
      </trkpt>
      <trkpt lat="43.87653" lon="3.69922">
        <ele>153.95</ele>
        <time>2015-01-17T10:24:57Z</time>
      </trkpt>
      <trkpt lat="43.8765" lon="3.69911">
        <ele>153.95</ele>
        <time>2015-01-17T10:25:06Z</time>
      </trkpt>
      <trkpt lat="43.87629" lon="3.69901">
        <ele>153.95</ele>
        <time>2015-01-17T10:25:26Z</time>
      </trkpt>
      <trkpt lat="43.87624" lon="3.69901">
        <ele>153.95</ele>
        <time>2015-01-17T10:25:39Z</time>
      </trkpt>
      <trkpt lat="43.87618" lon="3.69919">
        <ele>152.99</ele>
        <time>2015-01-17T10:25:51Z</time>
      </trkpt>
      <trkpt lat="43.87615" lon="3.69926">
        <ele>152.99</ele>
        <time>2015-01-17T10:25:55Z</time>
      </trkpt>
      <trkpt lat="43.87614" lon="3.69929">
        <ele>152.99</ele>
        <time>2015-01-17T10:25:57Z</time>
      </trkpt>
      <trkpt lat="43.8761" lon="3.69954">
        <ele>153.47</ele>
        <time>2015-01-17T10:26:13Z</time>
      </trkpt>
      <trkpt lat="43.87601" lon="3.69967">
        <ele>152.99</ele>
        <time>2015-01-17T10:26:22Z</time>
      </trkpt>
      <trkpt lat="43.87601" lon="3.69985">
        <ele>153.47</ele>
        <time>2015-01-17T10:26:32Z</time>
      </trkpt>
      <trkpt lat="43.87601" lon="3.69991">
        <ele>153.95</ele>
        <time>2015-01-17T10:26:35Z</time>
      </trkpt>
      <trkpt lat="43.87598" lon="3.69997">
        <ele>156.35</ele>
        <time>2015-01-17T10:26:49Z</time>
      </trkpt>
      <trkpt lat="43.87593" lon="3.69996">
        <ele>157.31</ele>
        <time>2015-01-17T10:27:06Z</time>
      </trkpt>
      <trkpt lat="43.87588" lon="3.69977">
        <ele>160.2</ele>
        <time>2015-01-17T10:27:27Z</time>
      </trkpt>
      <trkpt lat="43.87585" lon="3.69962">
        <ele>163.56</ele>
        <time>2015-01-17T10:27:42Z</time>
      </trkpt>
      <trkpt lat="43.8758" lon="3.6995">
        <ele>166.45</ele>
        <time>2015-01-17T10:27:56Z</time>
      </trkpt>
      <trkpt lat="43.87572" lon="3.69934">
        <ele>169.81</ele>
        <time>2015-01-17T10:28:15Z</time>
      </trkpt>
      <trkpt lat="43.87559" lon="3.69922">
        <ele>173.17</ele>
        <time>2015-01-17T10:28:33Z</time>
      </trkpt>
      <trkpt lat="43.87551" lon="3.69912">
        <ele>176.06</ele>
        <time>2015-01-17T10:28:48Z</time>
      </trkpt>
      <trkpt lat="43.8755" lon="3.69911">
        <ele>176.06</ele>
        <time>2015-01-17T10:28:49Z</time>
      </trkpt>
      <trkpt lat="43.8754" lon="3.69901">
        <ele>179.42</ele>
        <time>2015-01-17T10:29:03Z</time>
      </trkpt>
      <trkpt lat="43.87532" lon="3.69892">
        <ele>181.35</ele>
        <time>2015-01-17T10:29:16Z</time>
      </trkpt>
      <trkpt lat="43.87525" lon="3.69875">
        <ele>184.23</ele>
        <time>2015-01-17T10:29:31Z</time>
      </trkpt>
      <trkpt lat="43.87525" lon="3.69874">
        <ele>183.75</ele>
        <time>2015-01-17T10:29:32Z</time>
      </trkpt>
      <trkpt lat="43.87523" lon="3.69868">
        <ele>185.19</ele>
        <time>2015-01-17T10:29:36Z</time>
      </trkpt>
      <trkpt lat="43.87515" lon="3.69852">
        <ele>187.59</ele>
        <time>2015-01-17T10:29:52Z</time>
      </trkpt>
      <trkpt lat="43.87509" lon="3.69839">
        <ele>190.96</ele>
        <time>2015-01-17T10:30:05Z</time>
      </trkpt>
      <trkpt lat="43.87505" lon="3.69835">
        <ele>191.92</ele>
        <time>2015-01-17T10:30:11Z</time>
      </trkpt>
      <trkpt lat="43.87501" lon="3.69822">
        <ele>194.32</ele>
        <time>2015-01-17T10:30:23Z</time>
      </trkpt>
      <trkpt lat="43.87497" lon="3.6981">
        <ele>196.73</ele>
        <time>2015-01-17T10:30:39Z</time>
      </trkpt>
      <trkpt lat="43.87494" lon="3.69797">
        <ele>199.13</ele>
        <time>2015-01-17T10:30:51Z</time>
      </trkpt>
      <trkpt lat="43.87492" lon="3.69793">
        <ele>199.13</ele>
        <time>2015-01-17T10:30:55Z</time>
      </trkpt>
      <trkpt lat="43.87484" lon="3.6978">
        <ele>202.01</ele>
        <time>2015-01-17T10:31:11Z</time>
      </trkpt>
      <trkpt lat="43.87476" lon="3.69768">
        <ele>204.9</ele>
        <time>2015-01-17T10:31:28Z</time>
      </trkpt>
      <trkpt lat="43.87465" lon="3.69758">
        <ele>207.78</ele>
        <time>2015-01-17T10:31:45Z</time>
      </trkpt>
      <trkpt lat="43.8746" lon="3.69754">
        <ele>211.15</ele>
        <time>2015-01-17T10:31:57Z</time>
      </trkpt>
      <trkpt lat="43.87455" lon="3.69747">
        <ele>214.03</ele>
        <time>2015-01-17T10:32:08Z</time>
      </trkpt>
      <trkpt lat="43.87445" lon="3.69739">
        <ele>216.91</ele>
        <time>2015-01-17T10:32:22Z</time>
      </trkpt>
      <trkpt lat="43.87435" lon="3.69727">
        <ele>220.28</ele>
        <time>2015-01-17T10:32:39Z</time>
      </trkpt>
      <trkpt lat="43.87429" lon="3.69722">
        <ele>223.16</ele>
        <time>2015-01-17T10:32:53Z</time>
      </trkpt>
      <trkpt lat="43.87421" lon="3.69708">
        <ele>226.53</ele>
        <time>2015-01-17T10:33:11Z</time>
      </trkpt>
      <trkpt lat="43.87413" lon="3.69692">
        <ele>228.93</ele>
        <time>2015-01-17T10:33:30Z</time>
      </trkpt>
      <trkpt lat="43.87405" lon="3.69677">
        <ele>232.3</ele>
        <time>2015-01-17T10:33:51Z</time>
      </trkpt>
      <trkpt lat="43.87403" lon="3.69675">
        <ele>233.26</ele>
        <time>2015-01-17T10:33:53Z</time>
      </trkpt>
      <trkpt lat="43.87401" lon="3.69673">
        <ele>234.22</ele>
        <time>2015-01-17T10:33:56Z</time>
      </trkpt>
      <trkpt lat="43.8739" lon="3.6966">
        <ele>236.62</ele>
        <time>2015-01-17T10:34:14Z</time>
      </trkpt>
      <trkpt lat="43.8738" lon="3.69647">
        <ele>239.51</ele>
        <time>2015-01-17T10:34:32Z</time>
      </trkpt>
      <trkpt lat="43.87376" lon="3.69642">
        <ele>242.87</ele>
        <time>2015-01-17T10:34:42Z</time>
      </trkpt>
      <trkpt lat="43.87366" lon="3.69631">
        <ele>245.27</ele>
        <time>2015-01-17T10:35:00Z</time>
      </trkpt>
      <trkpt lat="43.8736" lon="3.69616">
        <ele>247.68</ele>
        <time>2015-01-17T10:35:16Z</time>
      </trkpt>
      <trkpt lat="43.87351" lon="3.69591">
        <ele>247.2</ele>
        <time>2015-01-17T10:35:32Z</time>
      </trkpt>
      <trkpt lat="43.87347" lon="3.6956">
        <ele>249.6</ele>
        <time>2015-01-17T10:35:49Z</time>
      </trkpt>
      <trkpt lat="43.87338" lon="3.69535">
        <ele>249.12</ele>
        <time>2015-01-17T10:36:07Z</time>
      </trkpt>
      <trkpt lat="43.87337" lon="3.69526">
        <ele>249.6</ele>
        <time>2015-01-17T10:36:13Z</time>
      </trkpt>
      <trkpt lat="43.87332" lon="3.69499">
        <ele>249.6</ele>
        <time>2015-01-17T10:36:29Z</time>
      </trkpt>
      <trkpt lat="43.87332" lon="3.69494">
        <ele>249.6</ele>
        <time>2015-01-17T10:36:32Z</time>
      </trkpt>
      <trkpt lat="43.87331" lon="3.6949">
        <ele>250.56</ele>
        <time>2015-01-17T10:36:35Z</time>
      </trkpt>
      <trkpt lat="43.87323" lon="3.69472">
        <ele>249.12</ele>
        <time>2015-01-17T10:36:55Z</time>
      </trkpt>
      <trkpt lat="43.87322" lon="3.69466">
        <ele>250.08</ele>
        <time>2015-01-17T10:37:11Z</time>
      </trkpt>
      <trkpt lat="43.87317" lon="3.69462">
        <ele>249.6</ele>
        <time>2015-01-17T10:37:19Z</time>
      </trkpt>
      <trkpt lat="43.87309" lon="3.69459">
        <ele>249.6</ele>
        <time>2015-01-17T10:37:28Z</time>
      </trkpt>
      <trkpt lat="43.87308" lon="3.69457">
        <ele>249.6</ele>
        <time>2015-01-17T10:37:30Z</time>
      </trkpt>
      <trkpt lat="43.87306" lon="3.69453">
        <ele>249.6</ele>
        <time>2015-01-17T10:37:33Z</time>
      </trkpt>
      <trkpt lat="43.87302" lon="3.69445">
        <ele>248.16</ele>
        <time>2015-01-17T10:37:40Z</time>
      </trkpt>
      <trkpt lat="43.87301" lon="3.69438">
        <ele>248.64</ele>
        <time>2015-01-17T10:37:44Z</time>
      </trkpt>
      <trkpt lat="43.87299" lon="3.69431">
        <ele>248.64</ele>
        <time>2015-01-17T10:37:48Z</time>
      </trkpt>
      <trkpt lat="43.87288" lon="3.69404">
        <ele>247.68</ele>
        <time>2015-01-17T10:38:03Z</time>
      </trkpt>
      <trkpt lat="43.87279" lon="3.6939">
        <ele>245.75</ele>
        <time>2015-01-17T10:38:18Z</time>
      </trkpt>
      <trkpt lat="43.87266" lon="3.69374">
        <ele>243.83</ele>
        <time>2015-01-17T10:38:37Z</time>
      </trkpt>
      <trkpt lat="43.87261" lon="3.69367">
        <ele>244.31</ele>
        <time>2015-01-17T10:38:46Z</time>
      </trkpt>
      <trkpt lat="43.8725" lon="3.69346">
        <ele>245.75</ele>
        <time>2015-01-17T10:39:03Z</time>
      </trkpt>
      <trkpt lat="43.87244" lon="3.69335">
        <ele>246.23</ele>
        <time>2015-01-17T10:39:11Z</time>
      </trkpt>
      <trkpt lat="43.87224" lon="3.69305">
        <ele>247.68</ele>
        <time>2015-01-17T10:39:35Z</time>
      </trkpt>
      <trkpt lat="43.87222" lon="3.69286">
        <ele>250.56</ele>
        <time>2015-01-17T10:39:52Z</time>
      </trkpt>
      <trkpt lat="43.87224" lon="3.69265">
        <ele>252.96</ele>
        <time>2015-01-17T10:40:08Z</time>
      </trkpt>
      <trkpt lat="43.87226" lon="3.69239">
        <ele>255.37</ele>
        <time>2015-01-17T10:40:28Z</time>
      </trkpt>
      <trkpt lat="43.87229" lon="3.69209">
        <ele>258.25</ele>
        <time>2015-01-17T10:40:45Z</time>
      </trkpt>
      <trkpt lat="43.87235" lon="3.69196">
        <ele>259.21</ele>
        <time>2015-01-17T10:40:56Z</time>
      </trkpt>
      <trkpt lat="43.87238" lon="3.69193">
        <ele>259.69</ele>
        <time>2015-01-17T10:40:59Z</time>
      </trkpt>
      <trkpt lat="43.8724" lon="3.6919">
        <ele>260.17</ele>
        <time>2015-01-17T10:41:01Z</time>
      </trkpt>
      <trkpt lat="43.87249" lon="3.69169">
        <ele>262.58</ele>
        <time>2015-01-17T10:41:19Z</time>
      </trkpt>
      <trkpt lat="43.87254" lon="3.69149">
        <ele>264.98</ele>
        <time>2015-01-17T10:41:36Z</time>
      </trkpt>
      <trkpt lat="43.87261" lon="3.69129">
        <ele>267.38</ele>
        <time>2015-01-17T10:41:51Z</time>
      </trkpt>
      <trkpt lat="43.87268" lon="3.6911">
        <ele>269.31</ele>
        <time>2015-01-17T10:42:07Z</time>
      </trkpt>
      <trkpt lat="43.87269" lon="3.69107">
        <ele>269.31</ele>
        <time>2015-01-17T10:42:09Z</time>
      </trkpt>
      <trkpt lat="43.87279" lon="3.69107">
        <ele>272.19</ele>
        <time>2015-01-17T10:42:24Z</time>
      </trkpt>
      <trkpt lat="43.87288" lon="3.69118">
        <ele>272.67</ele>
        <time>2015-01-17T10:42:38Z</time>
      </trkpt>
      <trkpt lat="43.87289" lon="3.69119">
        <ele>273.15</ele>
        <time>2015-01-17T10:42:39Z</time>
      </trkpt>
      <trkpt lat="43.87298" lon="3.69132">
        <ele>273.15</ele>
        <time>2015-01-17T10:42:55Z</time>
      </trkpt>
      <trkpt lat="43.87299" lon="3.69133">
        <ele>273.15</ele>
        <time>2015-01-17T10:42:56Z</time>
      </trkpt>
      <trkpt lat="43.87307" lon="3.69148">
        <ele>273.63</ele>
        <time>2015-01-17T10:43:07Z</time>
      </trkpt>
      <trkpt lat="43.87313" lon="3.69154">
        <ele>274.59</ele>
        <time>2015-01-17T10:43:12Z</time>
      </trkpt>
      <trkpt lat="43.87317" lon="3.69159">
        <ele>274.11</ele>
        <time>2015-01-17T10:43:17Z</time>
      </trkpt>
      <trkpt lat="43.87332" lon="3.69169">
        <ele>275.56</ele>
        <time>2015-01-17T10:43:32Z</time>
      </trkpt>
      <trkpt lat="43.87345" lon="3.69163">
        <ele>278.44</ele>
        <time>2015-01-17T10:43:47Z</time>
      </trkpt>
      <trkpt lat="43.87356" lon="3.69148">
        <ele>281.8</ele>
        <time>2015-01-17T10:44:05Z</time>
      </trkpt>
      <trkpt lat="43.87358" lon="3.69138">
        <ele>284.69</ele>
        <time>2015-01-17T10:44:22Z</time>
      </trkpt>
      <trkpt lat="43.87361" lon="3.69114">
        <ele>287.09</ele>
        <time>2015-01-17T10:44:40Z</time>
      </trkpt>
      <trkpt lat="43.87363" lon="3.69106">
        <ele>288.05</ele>
        <time>2015-01-17T10:44:45Z</time>
      </trkpt>
      <trkpt lat="43.87373" lon="3.69079">
        <ele>290.94</ele>
        <time>2015-01-17T10:45:04Z</time>
      </trkpt>
      <trkpt lat="43.87382" lon="3.69072">
        <ele>293.82</ele>
        <time>2015-01-17T10:45:19Z</time>
      </trkpt>
      <trkpt lat="43.87381" lon="3.69054">
        <ele>295.26</ele>
        <time>2015-01-17T10:45:36Z</time>
      </trkpt>
      <trkpt lat="43.8737" lon="3.69025">
        <ele>297.18</ele>
        <time>2015-01-17T10:45:56Z</time>
      </trkpt>
      <trkpt lat="43.87366" lon="3.69015">
        <ele>300.07</ele>
        <time>2015-01-17T10:46:09Z</time>
      </trkpt>
      <trkpt lat="43.87361" lon="3.68992">
        <ele>301.03</ele>
        <time>2015-01-17T10:46:27Z</time>
      </trkpt>
      <trkpt lat="43.87367" lon="3.68973">
        <ele>304.39</ele>
        <time>2015-01-17T10:46:44Z</time>
      </trkpt>
      <trkpt lat="43.87368" lon="3.68958">
        <ele>307.28</ele>
        <time>2015-01-17T10:47:03Z</time>
      </trkpt>
      <trkpt lat="43.87369" lon="3.68955">
        <ele>307.76</ele>
        <time>2015-01-17T10:47:06Z</time>
      </trkpt>
      <trkpt lat="43.87371" lon="3.68952">
        <ele>310.64</ele>
        <time>2015-01-17T10:47:16Z</time>
      </trkpt>
      <trkpt lat="43.87382" lon="3.68958">
        <ele>312.09</ele>
        <time>2015-01-17T10:47:35Z</time>
      </trkpt>
      <trkpt lat="43.874" lon="3.68964">
        <ele>314.49</ele>
        <time>2015-01-17T10:47:51Z</time>
      </trkpt>
      <trkpt lat="43.87414" lon="3.68969">
        <ele>316.89</ele>
        <time>2015-01-17T10:48:07Z</time>
      </trkpt>
      <trkpt lat="43.87421" lon="3.6897">
        <ele>318.33</ele>
        <time>2015-01-17T10:48:14Z</time>
      </trkpt>
      <trkpt lat="43.87426" lon="3.68972">
        <ele>318.81</ele>
        <time>2015-01-17T10:48:19Z</time>
      </trkpt>
      <trkpt lat="43.87429" lon="3.68973">
        <ele>319.3</ele>
        <time>2015-01-17T10:48:22Z</time>
      </trkpt>
      <trkpt lat="43.87434" lon="3.68975">
        <ele>319.78</ele>
        <time>2015-01-17T10:48:29Z</time>
      </trkpt>
      <trkpt lat="43.87448" lon="3.68991">
        <ele>319.78</ele>
        <time>2015-01-17T10:48:47Z</time>
      </trkpt>
      <trkpt lat="43.87456" lon="3.68997">
        <ele>320.26</ele>
        <time>2015-01-17T10:49:05Z</time>
      </trkpt>
      <trkpt lat="43.87466" lon="3.69007">
        <ele>322.18</ele>
        <time>2015-01-17T10:49:19Z</time>
      </trkpt>
      <trkpt lat="43.87467" lon="3.69021">
        <ele>323.62</ele>
        <time>2015-01-17T10:49:34Z</time>
      </trkpt>
      <trkpt lat="43.87474" lon="3.69041">
        <ele>325.06</ele>
        <time>2015-01-17T10:49:44Z</time>
      </trkpt>
      <trkpt lat="43.87475" lon="3.69047">
        <ele>325.54</ele>
        <time>2015-01-17T10:49:48Z</time>
      </trkpt>
      <trkpt lat="43.87487" lon="3.69069">
        <ele>327.95</ele>
        <time>2015-01-17T10:50:05Z</time>
      </trkpt>
      <trkpt lat="43.87494" lon="3.69066">
        <ele>330.83</ele>
        <time>2015-01-17T10:50:22Z</time>
      </trkpt>
      <trkpt lat="43.87494" lon="3.69065">
        <ele>330.83</ele>
        <time>2015-01-17T10:50:23Z</time>
      </trkpt>
      <trkpt lat="43.875" lon="3.69045">
        <ele>332.75</ele>
        <time>2015-01-17T10:50:42Z</time>
      </trkpt>
      <trkpt lat="43.87509" lon="3.69028">
        <ele>336.12</ele>
        <time>2015-01-17T10:50:57Z</time>
      </trkpt>
      <trkpt lat="43.87513" lon="3.69023">
        <ele>337.56</ele>
        <time>2015-01-17T10:51:14Z</time>
      </trkpt>
      <trkpt lat="43.87517" lon="3.69023">
        <ele>340.44</ele>
        <time>2015-01-17T10:51:22Z</time>
      </trkpt>
      <trkpt lat="43.87525" lon="3.69018">
        <ele>342.37</ele>
        <time>2015-01-17T10:51:33Z</time>
      </trkpt>
      <trkpt lat="43.87528" lon="3.69012">
        <ele>343.81</ele>
        <time>2015-01-17T10:51:48Z</time>
      </trkpt>
      <trkpt lat="43.87534" lon="3.69022">
        <ele>345.73</ele>
        <time>2015-01-17T10:52:05Z</time>
      </trkpt>
      <trkpt lat="43.87536" lon="3.69024">
        <ele>345.25</ele>
        <time>2015-01-17T10:52:23Z</time>
      </trkpt>
      <trkpt lat="43.87538" lon="3.69025">
        <ele>345.25</ele>
        <time>2015-01-17T10:53:06Z</time>
      </trkpt>
      <trkpt lat="43.87539" lon="3.69025">
        <ele>344.77</ele>
        <time>2015-01-17T10:53:57Z</time>
      </trkpt>
      <trkpt lat="43.87539" lon="3.69026">
        <ele>344.77</ele>
        <time>2015-01-17T10:54:47Z</time>
      </trkpt>
      <trkpt lat="43.8754" lon="3.69027">
        <ele>344.29</ele>
        <time>2015-01-17T10:55:26Z</time>
      </trkpt>
      <trkpt lat="43.8754" lon="3.69026">
        <ele>343.81</ele>
        <time>2015-01-17T10:55:59Z</time>
      </trkpt>
      <trkpt lat="43.87539" lon="3.69026">
        <ele>343.81</ele>
        <time>2015-01-17T10:56:29Z</time>
      </trkpt>
      <trkpt lat="43.87539" lon="3.69025">
        <ele>338.04</ele>
        <time>2015-01-17T10:56:43Z</time>
      </trkpt>
      <trkpt lat="43.87539" lon="3.69024">
        <ele>346.69</ele>
        <time>2015-01-17T10:56:44Z</time>
      </trkpt>
      <trkpt lat="43.87539" lon="3.69024">
        <ele>343.33</ele>
        <time>2015-01-17T10:56:45Z</time>
      </trkpt>
      <trkpt lat="43.87539" lon="3.69024">
        <ele>344.29</ele>
        <time>2015-01-17T10:56:51Z</time>
      </trkpt>
      <trkpt lat="43.8754" lon="3.69026">
        <ele>343.81</ele>
        <time>2015-01-17T10:57:16Z</time>
      </trkpt>
      <trkpt lat="43.87547" lon="3.69029">
        <ele>346.69</ele>
        <time>2015-01-17T10:57:34Z</time>
      </trkpt>
      <trkpt lat="43.87555" lon="3.69029">
        <ele>350.06</ele>
        <time>2015-01-17T10:57:48Z</time>
      </trkpt>
      <trkpt lat="43.87564" lon="3.69035">
        <ele>352.46</ele>
        <time>2015-01-17T10:58:07Z</time>
      </trkpt>
      <trkpt lat="43.87571" lon="3.69045">
        <ele>353.42</ele>
        <time>2015-01-17T10:58:22Z</time>
      </trkpt>
      <trkpt lat="43.87575" lon="3.69048">
        <ele>353.42</ele>
        <time>2015-01-17T10:58:38Z</time>
      </trkpt>
      <trkpt lat="43.87575" lon="3.69048">
        <ele>353.42</ele>
        <time>2015-01-17T10:58:39Z</time>
      </trkpt>
      <trkpt lat="43.87582" lon="3.69055">
        <ele>353.9</ele>
        <time>2015-01-17T10:58:55Z</time>
      </trkpt>
      <trkpt lat="43.87587" lon="3.6906">
        <ele>351.98</ele>
        <time>2015-01-17T10:59:12Z</time>
      </trkpt>
      <trkpt lat="43.87596" lon="3.69066">
        <ele>354.38</ele>
        <time>2015-01-17T10:59:32Z</time>
      </trkpt>
      <trkpt lat="43.87602" lon="3.69073">
        <ele>354.38</ele>
        <time>2015-01-17T10:59:54Z</time>
      </trkpt>
      <trkpt lat="43.87603" lon="3.69077">
        <ele>354.38</ele>
        <time>2015-01-17T11:00:22Z</time>
      </trkpt>
      <trkpt lat="43.87607" lon="3.69074">
        <ele>356.79</ele>
        <time>2015-01-17T11:00:40Z</time>
      </trkpt>
      <trkpt lat="43.8761" lon="3.69071">
        <ele>361.59</ele>
        <time>2015-01-17T11:00:57Z</time>
      </trkpt>
      <trkpt lat="43.8761" lon="3.69071">
        <ele>355.83</ele>
        <time>2015-01-17T11:00:58Z</time>
      </trkpt>
      <trkpt lat="43.8761" lon="3.69071">
        <ele>360.15</ele>
        <time>2015-01-17T11:01:02Z</time>
      </trkpt>
      <trkpt lat="43.8761" lon="3.69071">
        <ele>363.52</ele>
        <time>2015-01-17T11:01:07Z</time>
      </trkpt>
      <trkpt lat="43.8761" lon="3.69071">
        <ele>357.75</ele>
        <time>2015-01-17T11:01:08Z</time>
      </trkpt>
      <trkpt lat="43.8761" lon="3.69071">
        <ele>361.11</ele>
        <time>2015-01-17T11:01:09Z</time>
      </trkpt>
      <trkpt lat="43.8761" lon="3.69071">
        <ele>357.75</ele>
        <time>2015-01-17T11:01:10Z</time>
      </trkpt>
      <trkpt lat="43.8761" lon="3.69072">
        <ele>351.5</ele>
        <time>2015-01-17T11:01:17Z</time>
      </trkpt>
      <trkpt lat="43.8761" lon="3.69072">
        <ele>357.75</ele>
        <time>2015-01-17T11:01:18Z</time>
      </trkpt>
      <trkpt lat="43.8761" lon="3.69072">
        <ele>362.55</ele>
        <time>2015-01-17T11:01:24Z</time>
      </trkpt>
      <trkpt lat="43.8761" lon="3.69072">
        <ele>357.27</ele>
        <time>2015-01-17T11:01:25Z</time>
      </trkpt>
      <trkpt lat="43.87617" lon="3.69065">
        <ele>360.63</ele>
        <time>2015-01-17T11:01:43Z</time>
      </trkpt>
      <trkpt lat="43.8762" lon="3.69063">
        <ele>361.59</ele>
        <time>2015-01-17T11:01:45Z</time>
      </trkpt>
      <trkpt lat="43.87634" lon="3.69055">
        <ele>364.48</ele>
        <time>2015-01-17T11:02:06Z</time>
      </trkpt>
      <trkpt lat="43.87634" lon="3.69054">
        <ele>367.84</ele>
        <time>2015-01-17T11:02:18Z</time>
      </trkpt>
      <trkpt lat="43.87634" lon="3.69054">
        <ele>367.36</ele>
        <time>2015-01-17T11:02:19Z</time>
      </trkpt>
      <trkpt lat="43.87634" lon="3.69054">
        <ele>362.07</ele>
        <time>2015-01-17T11:02:21Z</time>
      </trkpt>
      <trkpt lat="43.87634" lon="3.69054">
        <ele>366.88</ele>
        <time>2015-01-17T11:02:22Z</time>
      </trkpt>
      <trkpt lat="43.87634" lon="3.69054">
        <ele>356.79</ele>
        <time>2015-01-17T11:02:24Z</time>
      </trkpt>
      <trkpt lat="43.87634" lon="3.69054">
        <ele>366.4</ele>
        <time>2015-01-17T11:02:25Z</time>
      </trkpt>
      <trkpt lat="43.87634" lon="3.69054">
        <ele>363.04</ele>
        <time>2015-01-17T11:02:28Z</time>
      </trkpt>
      <trkpt lat="43.87634" lon="3.69054">
        <ele>373.13</ele>
        <time>2015-01-17T11:02:31Z</time>
      </trkpt>
      <trkpt lat="43.87634" lon="3.69054">
        <ele>359.67</ele>
        <time>2015-01-17T11:02:32Z</time>
      </trkpt>
      <trkpt lat="43.87634" lon="3.69054">
        <ele>363.52</ele>
        <time>2015-01-17T11:02:33Z</time>
      </trkpt>
      <trkpt lat="43.87634" lon="3.69053">
        <ele>372.17</ele>
        <time>2015-01-17T11:02:36Z</time>
      </trkpt>
      <trkpt lat="43.87634" lon="3.69053">
        <ele>366.88</ele>
        <time>2015-01-17T11:02:37Z</time>
      </trkpt>
      <trkpt lat="43.87634" lon="3.69053">
        <ele>364</ele>
        <time>2015-01-17T11:02:40Z</time>
      </trkpt>
      <trkpt lat="43.87635" lon="3.69053">
        <ele>357.27</ele>
        <time>2015-01-17T11:02:43Z</time>
      </trkpt>
      <trkpt lat="43.87636" lon="3.69053">
        <ele>365.44</ele>
        <time>2015-01-17T11:02:44Z</time>
      </trkpt>
      <trkpt lat="43.8764" lon="3.69055">
        <ele>366.88</ele>
        <time>2015-01-17T11:02:53Z</time>
      </trkpt>
      <trkpt lat="43.87646" lon="3.69054">
        <ele>370.24</ele>
        <time>2015-01-17T11:03:12Z</time>
      </trkpt>
      <trkpt lat="43.87659" lon="3.69053">
        <ele>372.17</ele>
        <time>2015-01-17T11:03:31Z</time>
      </trkpt>
      <trkpt lat="43.87671" lon="3.69056">
        <ele>371.69</ele>
        <time>2015-01-17T11:03:50Z</time>
      </trkpt>
      <trkpt lat="43.87692" lon="3.69067">
        <ele>368.8</ele>
        <time>2015-01-17T11:04:10Z</time>
      </trkpt>
      <trkpt lat="43.87701" lon="3.69073">
        <ele>365.44</ele>
        <time>2015-01-17T11:04:19Z</time>
      </trkpt>
      <trkpt lat="43.87703" lon="3.69074">
        <ele>369.28</ele>
        <time>2015-01-17T11:04:22Z</time>
      </trkpt>
      <trkpt lat="43.87703" lon="3.69073">
        <ele>369.28</ele>
        <time>2015-01-17T11:04:23Z</time>
      </trkpt>
      <trkpt lat="43.87703" lon="3.69073">
        <ele>364.96</ele>
        <time>2015-01-17T11:04:24Z</time>
      </trkpt>
      <trkpt lat="43.87703" lon="3.69073">
        <ele>372.17</ele>
        <time>2015-01-17T11:04:25Z</time>
      </trkpt>
      <trkpt lat="43.87703" lon="3.69073">
        <ele>371.69</ele>
        <time>2015-01-17T11:04:26Z</time>
      </trkpt>
      <trkpt lat="43.87703" lon="3.69074">
        <ele>367.36</ele>
        <time>2015-01-17T11:04:28Z</time>
      </trkpt>
      <trkpt lat="43.87703" lon="3.69073">
        <ele>367.84</ele>
        <time>2015-01-17T11:04:29Z</time>
      </trkpt>
      <trkpt lat="43.87704" lon="3.69075">
        <ele>367.36</ele>
        <time>2015-01-17T11:05:09Z</time>
      </trkpt>
      <trkpt lat="43.87706" lon="3.69076">
        <ele>365.92</ele>
        <time>2015-01-17T11:05:16Z</time>
      </trkpt>
      <trkpt lat="43.87713" lon="3.69087">
        <ele>363.04</ele>
        <time>2015-01-17T11:05:29Z</time>
      </trkpt>
      <trkpt lat="43.87715" lon="3.69089">
        <ele>362.55</ele>
        <time>2015-01-17T11:05:31Z</time>
      </trkpt>
      <trkpt lat="43.87721" lon="3.69094">
        <ele>359.19</ele>
        <time>2015-01-17T11:05:41Z</time>
      </trkpt>
      <trkpt lat="43.87728" lon="3.69101">
        <ele>357.27</ele>
        <time>2015-01-17T11:05:51Z</time>
      </trkpt>
      <trkpt lat="43.8772" lon="3.6911">
        <ele>354.38</ele>
        <time>2015-01-17T11:06:04Z</time>
      </trkpt>
      <trkpt lat="43.87722" lon="3.69118">
        <ele>351.5</ele>
        <time>2015-01-17T11:06:16Z</time>
      </trkpt>
      <trkpt lat="43.87736" lon="3.69132">
        <ele>348.13</ele>
        <time>2015-01-17T11:06:32Z</time>
      </trkpt>
      <trkpt lat="43.87742" lon="3.69137">
        <ele>346.21</ele>
        <time>2015-01-17T11:06:38Z</time>
      </trkpt>
      <trkpt lat="43.87759" lon="3.69148">
        <ele>343.33</ele>
        <time>2015-01-17T11:06:57Z</time>
      </trkpt>
      <trkpt lat="43.87767" lon="3.69151">
        <ele>342.37</ele>
        <time>2015-01-17T11:07:06Z</time>
      </trkpt>
      <trkpt lat="43.87783" lon="3.69161">
        <ele>340.44</ele>
        <time>2015-01-17T11:07:23Z</time>
      </trkpt>
      <trkpt lat="43.87785" lon="3.69162">
        <ele>340.44</ele>
        <time>2015-01-17T11:07:25Z</time>
      </trkpt>
      <trkpt lat="43.87805" lon="3.69171">
        <ele>338.04</ele>
        <time>2015-01-17T11:07:45Z</time>
      </trkpt>
      <trkpt lat="43.87824" lon="3.69184">
        <ele>336.12</ele>
        <time>2015-01-17T11:08:06Z</time>
      </trkpt>
      <trkpt lat="43.87841" lon="3.69196">
        <ele>334.68</ele>
        <time>2015-01-17T11:08:25Z</time>
      </trkpt>
      <trkpt lat="43.87848" lon="3.69202">
        <ele>334.2</ele>
        <time>2015-01-17T11:08:32Z</time>
      </trkpt>
      <trkpt lat="43.87853" lon="3.69206">
        <ele>333.71</ele>
        <time>2015-01-17T11:08:37Z</time>
      </trkpt>
      <trkpt lat="43.87871" lon="3.69223">
        <ele>332.27</ele>
        <time>2015-01-17T11:08:56Z</time>
      </trkpt>
      <trkpt lat="43.87884" lon="3.69235">
        <ele>330.35</ele>
        <time>2015-01-17T11:09:10Z</time>
      </trkpt>
      <trkpt lat="43.87886" lon="3.69238">
        <ele>330.83</ele>
        <time>2015-01-17T11:09:12Z</time>
      </trkpt>
      <trkpt lat="43.87908" lon="3.69252">
        <ele>328.91</ele>
        <time>2015-01-17T11:09:35Z</time>
      </trkpt>
      <trkpt lat="43.87927" lon="3.69267">
        <ele>327.47</ele>
        <time>2015-01-17T11:09:54Z</time>
      </trkpt>
      <trkpt lat="43.87949" lon="3.69283">
        <ele>326.99</ele>
        <time>2015-01-17T11:10:14Z</time>
      </trkpt>
      <trkpt lat="43.87968" lon="3.69299">
        <ele>326.5</ele>
        <time>2015-01-17T11:10:34Z</time>
      </trkpt>
      <trkpt lat="43.87978" lon="3.69308">
        <ele>326.99</ele>
        <time>2015-01-17T11:10:43Z</time>
      </trkpt>
      <trkpt lat="43.87995" lon="3.69333">
        <ele>327.47</ele>
        <time>2015-01-17T11:11:02Z</time>
      </trkpt>
      <trkpt lat="43.88014" lon="3.69358">
        <ele>326.02</ele>
        <time>2015-01-17T11:11:22Z</time>
      </trkpt>
      <trkpt lat="43.88034" lon="3.69381">
        <ele>324.58</ele>
        <time>2015-01-17T11:11:44Z</time>
      </trkpt>
      <trkpt lat="43.88051" lon="3.69405">
        <ele>325.54</ele>
        <time>2015-01-17T11:12:04Z</time>
      </trkpt>
      <trkpt lat="43.88052" lon="3.69408">
        <ele>325.54</ele>
        <time>2015-01-17T11:12:06Z</time>
      </trkpt>
      <trkpt lat="43.88068" lon="3.6942">
        <ele>327.47</ele>
        <time>2015-01-17T11:12:23Z</time>
      </trkpt>
      <trkpt lat="43.88092" lon="3.6942">
        <ele>328.43</ele>
        <time>2015-01-17T11:12:45Z</time>
      </trkpt>
      <trkpt lat="43.88096" lon="3.69418">
        <ele>328.91</ele>
        <time>2015-01-17T11:12:50Z</time>
      </trkpt>
      <trkpt lat="43.88108" lon="3.69414">
        <ele>329.39</ele>
        <time>2015-01-17T11:13:00Z</time>
      </trkpt>
      <trkpt lat="43.8811" lon="3.69414">
        <ele>329.39</ele>
        <time>2015-01-17T11:13:02Z</time>
      </trkpt>
      <trkpt lat="43.88118" lon="3.69412">
        <ele>329.39</ele>
        <time>2015-01-17T11:13:08Z</time>
      </trkpt>
      <trkpt lat="43.8813" lon="3.69406">
        <ele>329.87</ele>
        <time>2015-01-17T11:13:18Z</time>
      </trkpt>
      <trkpt lat="43.88153" lon="3.69399">
        <ele>329.87</ele>
        <time>2015-01-17T11:13:36Z</time>
      </trkpt>
      <trkpt lat="43.8816" lon="3.69397">
        <ele>330.35</ele>
        <time>2015-01-17T11:13:41Z</time>
      </trkpt>
      <trkpt lat="43.88163" lon="3.69397">
        <ele>329.87</ele>
        <time>2015-01-17T11:13:43Z</time>
      </trkpt>
      <trkpt lat="43.88182" lon="3.69392">
        <ele>330.83</ele>
        <time>2015-01-17T11:13:57Z</time>
      </trkpt>
      <trkpt lat="43.88206" lon="3.69382">
        <ele>330.83</ele>
        <time>2015-01-17T11:14:18Z</time>
      </trkpt>
      <trkpt lat="43.88208" lon="3.69381">
        <ele>330.83</ele>
        <time>2015-01-17T11:14:19Z</time>
      </trkpt>
      <trkpt lat="43.88222" lon="3.69379">
        <ele>330.35</ele>
        <time>2015-01-17T11:14:30Z</time>
      </trkpt>
      <trkpt lat="43.88225" lon="3.69378">
        <ele>330.35</ele>
        <time>2015-01-17T11:14:32Z</time>
      </trkpt>
      <trkpt lat="43.88249" lon="3.6937">
        <ele>330.83</ele>
        <time>2015-01-17T11:14:50Z</time>
      </trkpt>
      <trkpt lat="43.88263" lon="3.69362">
        <ele>331.79</ele>
        <time>2015-01-17T11:15:02Z</time>
      </trkpt>
      <trkpt lat="43.88266" lon="3.69362">
        <ele>331.79</ele>
        <time>2015-01-17T11:15:04Z</time>
      </trkpt>
      <trkpt lat="43.8829" lon="3.69348">
        <ele>333.23</ele>
        <time>2015-01-17T11:15:25Z</time>
      </trkpt>
      <trkpt lat="43.88295" lon="3.69345">
        <ele>332.75</ele>
        <time>2015-01-17T11:15:30Z</time>
      </trkpt>
      <trkpt lat="43.88308" lon="3.69336">
        <ele>333.23</ele>
        <time>2015-01-17T11:15:41Z</time>
      </trkpt>
      <trkpt lat="43.88313" lon="3.69331">
        <ele>332.75</ele>
        <time>2015-01-17T11:15:46Z</time>
      </trkpt>
      <trkpt lat="43.88331" lon="3.69305">
        <ele>332.75</ele>
        <time>2015-01-17T11:16:07Z</time>
      </trkpt>
      <trkpt lat="43.88343" lon="3.69276">
        <ele>332.27</ele>
        <time>2015-01-17T11:16:25Z</time>
      </trkpt>
      <trkpt lat="43.88345" lon="3.69264">
        <ele>331.79</ele>
        <time>2015-01-17T11:16:32Z</time>
      </trkpt>
      <trkpt lat="43.88347" lon="3.69253">
        <ele>329.87</ele>
        <time>2015-01-17T11:16:38Z</time>
      </trkpt>
      <trkpt lat="43.88349" lon="3.69247">
        <ele>331.31</ele>
        <time>2015-01-17T11:16:41Z</time>
      </trkpt>
      <trkpt lat="43.88351" lon="3.69238">
        <ele>330.83</ele>
        <time>2015-01-17T11:16:46Z</time>
      </trkpt>
      <trkpt lat="43.88351" lon="3.69234">
        <ele>330.83</ele>
        <time>2015-01-17T11:16:48Z</time>
      </trkpt>
      <trkpt lat="43.88361" lon="3.69213">
        <ele>329.39</ele>
        <time>2015-01-17T11:17:11Z</time>
      </trkpt>
      <trkpt lat="43.88363" lon="3.69213">
        <ele>328.91</ele>
        <time>2015-01-17T11:17:43Z</time>
      </trkpt>
      <trkpt lat="43.88361" lon="3.69205">
        <ele>327.47</ele>
        <time>2015-01-17T11:17:53Z</time>
      </trkpt>
      <trkpt lat="43.88358" lon="3.69196">
        <ele>326.99</ele>
        <time>2015-01-17T11:18:00Z</time>
      </trkpt>
      <trkpt lat="43.88356" lon="3.69183">
        <ele>327.95</ele>
        <time>2015-01-17T11:18:08Z</time>
      </trkpt>
      <trkpt lat="43.88362" lon="3.69168">
        <ele>327.47</ele>
        <time>2015-01-17T11:18:19Z</time>
      </trkpt>
      <trkpt lat="43.88391" lon="3.69161">
        <ele>326.99</ele>
        <time>2015-01-17T11:18:40Z</time>
      </trkpt>
      <trkpt lat="43.88408" lon="3.69141">
        <ele>327.47</ele>
        <time>2015-01-17T11:18:58Z</time>
      </trkpt>
      <trkpt lat="43.88418" lon="3.69126">
        <ele>326.99</ele>
        <time>2015-01-17T11:19:10Z</time>
      </trkpt>
      <trkpt lat="43.88423" lon="3.69121">
        <ele>326.5</ele>
        <time>2015-01-17T11:19:14Z</time>
      </trkpt>
      <trkpt lat="43.88443" lon="3.69121">
        <ele>323.62</ele>
        <time>2015-01-17T11:19:31Z</time>
      </trkpt>
      <trkpt lat="43.88458" lon="3.69125">
        <ele>324.1</ele>
        <time>2015-01-17T11:19:44Z</time>
      </trkpt>
      <trkpt lat="43.88481" lon="3.69132">
        <ele>320.74</ele>
        <time>2015-01-17T11:20:01Z</time>
      </trkpt>
      <trkpt lat="43.88498" lon="3.69145">
        <ele>318.33</ele>
        <time>2015-01-17T11:20:17Z</time>
      </trkpt>
      <trkpt lat="43.88511" lon="3.69153">
        <ele>315.45</ele>
        <time>2015-01-17T11:20:28Z</time>
      </trkpt>
      <trkpt lat="43.88525" lon="3.69166">
        <ele>312.09</ele>
        <time>2015-01-17T11:20:44Z</time>
      </trkpt>
      <trkpt lat="43.88528" lon="3.69167">
        <ele>311.6</ele>
        <time>2015-01-17T11:20:47Z</time>
      </trkpt>
      <trkpt lat="43.88544" lon="3.69149">
        <ele>309.2</ele>
        <time>2015-01-17T11:21:02Z</time>
      </trkpt>
      <trkpt lat="43.88544" lon="3.69145">
        <ele>309.68</ele>
        <time>2015-01-17T11:21:04Z</time>
      </trkpt>
      <trkpt lat="43.88546" lon="3.69134">
        <ele>308.72</ele>
        <time>2015-01-17T11:21:10Z</time>
      </trkpt>
      <trkpt lat="43.88548" lon="3.69126">
        <ele>309.2</ele>
        <time>2015-01-17T11:21:14Z</time>
      </trkpt>
      <trkpt lat="43.88551" lon="3.69117">
        <ele>308.24</ele>
        <time>2015-01-17T11:21:20Z</time>
      </trkpt>
      <trkpt lat="43.88556" lon="3.69094">
        <ele>307.28</ele>
        <time>2015-01-17T11:21:33Z</time>
      </trkpt>
      <trkpt lat="43.8856" lon="3.69078">
        <ele>305.36</ele>
        <time>2015-01-17T11:21:42Z</time>
      </trkpt>
      <trkpt lat="43.88565" lon="3.69063">
        <ele>302.95</ele>
        <time>2015-01-17T11:21:53Z</time>
      </trkpt>
      <trkpt lat="43.88574" lon="3.69036">
        <ele>301.51</ele>
        <time>2015-01-17T11:22:08Z</time>
      </trkpt>
      <trkpt lat="43.88577" lon="3.6903">
        <ele>300.07</ele>
        <time>2015-01-17T11:22:12Z</time>
      </trkpt>
      <trkpt lat="43.88577" lon="3.69029">
        <ele>300.55</ele>
        <time>2015-01-17T11:22:13Z</time>
      </trkpt>
      <trkpt lat="43.88579" lon="3.69024">
        <ele>300.07</ele>
        <time>2015-01-17T11:22:16Z</time>
      </trkpt>
      <trkpt lat="43.88583" lon="3.69013">
        <ele>298.63</ele>
        <time>2015-01-17T11:22:23Z</time>
      </trkpt>
      <trkpt lat="43.88586" lon="3.69001">
        <ele>300.07</ele>
        <time>2015-01-17T11:22:29Z</time>
      </trkpt>
      <trkpt lat="43.88587" lon="3.68998">
        <ele>291.42</ele>
        <time>2015-01-17T11:22:31Z</time>
      </trkpt>
      <trkpt lat="43.88587" lon="3.68997">
        <ele>292.86</ele>
        <time>2015-01-17T11:22:32Z</time>
      </trkpt>
      <trkpt lat="43.88588" lon="3.68995">
        <ele>300.07</ele>
        <time>2015-01-17T11:22:33Z</time>
      </trkpt>
      <trkpt lat="43.88588" lon="3.68994">
        <ele>297.18</ele>
        <time>2015-01-17T11:22:34Z</time>
      </trkpt>
      <trkpt lat="43.88588" lon="3.68992">
        <ele>294.3</ele>
        <time>2015-01-17T11:22:36Z</time>
      </trkpt>
      <trkpt lat="43.88588" lon="3.68992">
        <ele>302.47</ele>
        <time>2015-01-17T11:22:37Z</time>
      </trkpt>
      <trkpt lat="43.88588" lon="3.68992">
        <ele>300.07</ele>
        <time>2015-01-17T11:22:38Z</time>
      </trkpt>
      <trkpt lat="43.8859" lon="3.68984">
        <ele>299.11</ele>
        <time>2015-01-17T11:22:45Z</time>
      </trkpt>
      <trkpt lat="43.88594" lon="3.68959">
        <ele>300.07</ele>
        <time>2015-01-17T11:23:02Z</time>
      </trkpt>
      <trkpt lat="43.88589" lon="3.68951">
        <ele>301.03</ele>
        <time>2015-01-17T11:23:23Z</time>
      </trkpt>
      <trkpt lat="43.88575" lon="3.68945">
        <ele>303.43</ele>
        <time>2015-01-17T11:23:42Z</time>
      </trkpt>
      <trkpt lat="43.88566" lon="3.68939">
        <ele>304.39</ele>
        <time>2015-01-17T11:23:51Z</time>
      </trkpt>
      <trkpt lat="43.8856" lon="3.68934">
        <ele>305.36</ele>
        <time>2015-01-17T11:23:57Z</time>
      </trkpt>
      <trkpt lat="43.88551" lon="3.68925">
        <ele>307.76</ele>
        <time>2015-01-17T11:24:12Z</time>
      </trkpt>
      <trkpt lat="43.8854" lon="3.68935">
        <ele>308.72</ele>
        <time>2015-01-17T11:24:27Z</time>
      </trkpt>
      <trkpt lat="43.88535" lon="3.68944">
        <ele>310.64</ele>
        <time>2015-01-17T11:24:47Z</time>
      </trkpt>
      <trkpt lat="43.88531" lon="3.68949">
        <ele>310.64</ele>
        <time>2015-01-17T11:25:03Z</time>
      </trkpt>
      <trkpt lat="43.88533" lon="3.6895">
        <ele>308.72</ele>
        <time>2015-01-17T11:25:21Z</time>
      </trkpt>
      <trkpt lat="43.88529" lon="3.68954">
        <ele>307.28</ele>
        <time>2015-01-17T11:25:38Z</time>
      </trkpt>
      <trkpt lat="43.88529" lon="3.68953">
        <ele>307.76</ele>
        <time>2015-01-17T11:26:03Z</time>
      </trkpt>
      <trkpt lat="43.88529" lon="3.68954">
        <ele>301.99</ele>
        <time>2015-01-17T11:26:28Z</time>
      </trkpt>
      <trkpt lat="43.88529" lon="3.68954">
        <ele>306.8</ele>
        <time>2015-01-17T11:26:29Z</time>
      </trkpt>
      <trkpt lat="43.88531" lon="3.68956">
        <ele>305.84</ele>
        <time>2015-01-17T11:26:57Z</time>
      </trkpt>
      <trkpt lat="43.88531" lon="3.68956">
        <ele>305.84</ele>
        <time>2015-01-17T11:27:37Z</time>
      </trkpt>
      <trkpt lat="43.88528" lon="3.68953">
        <ele>306.32</ele>
        <time>2015-01-17T11:28:13Z</time>
      </trkpt>
      <trkpt lat="43.8853" lon="3.68954">
        <ele>305.84</ele>
        <time>2015-01-17T11:28:48Z</time>
      </trkpt>
      <trkpt lat="43.88532" lon="3.68954">
        <ele>305.84</ele>
        <time>2015-01-17T11:29:29Z</time>
      </trkpt>
      <trkpt lat="43.88532" lon="3.68954">
        <ele>305.36</ele>
        <time>2015-01-17T11:30:18Z</time>
      </trkpt>
      <trkpt lat="43.88531" lon="3.68953">
        <ele>305.36</ele>
        <time>2015-01-17T11:31:06Z</time>
      </trkpt>
      <trkpt lat="43.88531" lon="3.68952">
        <ele>305.36</ele>
        <time>2015-01-17T11:31:54Z</time>
      </trkpt>
      <trkpt lat="43.88529" lon="3.68952">
        <ele>304.88</ele>
        <time>2015-01-17T11:32:44Z</time>
      </trkpt>
      <trkpt lat="43.88528" lon="3.68953">
        <ele>304.88</ele>
        <time>2015-01-17T11:33:32Z</time>
      </trkpt>
      <trkpt lat="43.88527" lon="3.68953">
        <ele>304.39</ele>
        <time>2015-01-17T11:34:23Z</time>
      </trkpt>
      <trkpt lat="43.88529" lon="3.68954">
        <ele>304.88</ele>
        <time>2015-01-17T11:35:11Z</time>
      </trkpt>
      <trkpt lat="43.8853" lon="3.68954">
        <ele>303.91</ele>
        <time>2015-01-17T11:36:00Z</time>
      </trkpt>
      <trkpt lat="43.8853" lon="3.68954">
        <ele>303.91</ele>
        <time>2015-01-17T11:36:47Z</time>
      </trkpt>
      <trkpt lat="43.8853" lon="3.68954">
        <ele>303.91</ele>
        <time>2015-01-17T11:37:30Z</time>
      </trkpt>
      <trkpt lat="43.8853" lon="3.68955">
        <ele>314.49</ele>
        <time>2015-01-17T11:37:49Z</time>
      </trkpt>
      <trkpt lat="43.8853" lon="3.68955">
        <ele>305.36</ele>
        <time>2015-01-17T11:37:50Z</time>
      </trkpt>
      <trkpt lat="43.8853" lon="3.68955">
        <ele>308.72</ele>
        <time>2015-01-17T11:37:57Z</time>
      </trkpt>
      <trkpt lat="43.8853" lon="3.68955">
        <ele>304.88</ele>
        <time>2015-01-17T11:37:58Z</time>
      </trkpt>
      <trkpt lat="43.8853" lon="3.68956">
        <ele>304.39</ele>
        <time>2015-01-17T11:38:20Z</time>
      </trkpt>
      <trkpt lat="43.88529" lon="3.68956">
        <ele>303.91</ele>
        <time>2015-01-17T11:38:59Z</time>
      </trkpt>
      <trkpt lat="43.88532" lon="3.6895">
        <ele>306.32</ele>
        <time>2015-01-17T11:39:18Z</time>
      </trkpt>
      <trkpt lat="43.88534" lon="3.68943">
        <ele>306.32</ele>
        <time>2015-01-17T11:39:32Z</time>
      </trkpt>
      <trkpt lat="43.88542" lon="3.68929">
        <ele>304.39</ele>
        <time>2015-01-17T11:39:48Z</time>
      </trkpt>
      <trkpt lat="43.88548" lon="3.68923">
        <ele>303.43</ele>
        <time>2015-01-17T11:39:56Z</time>
      </trkpt>
      <trkpt lat="43.88554" lon="3.68933">
        <ele>301.03</ele>
        <time>2015-01-17T11:40:13Z</time>
      </trkpt>
      <trkpt lat="43.88569" lon="3.6894">
        <ele>298.15</ele>
        <time>2015-01-17T11:40:30Z</time>
      </trkpt>
      <trkpt lat="43.88577" lon="3.68946">
        <ele>297.18</ele>
        <time>2015-01-17T11:40:37Z</time>
      </trkpt>
      <trkpt lat="43.88597" lon="3.68947">
        <ele>295.74</ele>
        <time>2015-01-17T11:40:53Z</time>
      </trkpt>
      <trkpt lat="43.88604" lon="3.68923">
        <ele>297.18</ele>
        <time>2015-01-17T11:41:09Z</time>
      </trkpt>
      <trkpt lat="43.88605" lon="3.68916">
        <ele>297.18</ele>
        <time>2015-01-17T11:41:13Z</time>
      </trkpt>
      <trkpt lat="43.88607" lon="3.68906">
        <ele>298.63</ele>
        <time>2015-01-17T11:41:19Z</time>
      </trkpt>
      <trkpt lat="43.88608" lon="3.68902">
        <ele>298.15</ele>
        <time>2015-01-17T11:41:21Z</time>
      </trkpt>
      <trkpt lat="43.88611" lon="3.68892">
        <ele>298.15</ele>
        <time>2015-01-17T11:41:33Z</time>
      </trkpt>
      <trkpt lat="43.88615" lon="3.68878">
        <ele>298.63</ele>
        <time>2015-01-17T11:41:42Z</time>
      </trkpt>
      <trkpt lat="43.88616" lon="3.68872">
        <ele>298.15</ele>
        <time>2015-01-17T11:41:46Z</time>
      </trkpt>
      <trkpt lat="43.88617" lon="3.6886">
        <ele>298.15</ele>
        <time>2015-01-17T11:41:54Z</time>
      </trkpt>
      <trkpt lat="43.8862" lon="3.68847">
        <ele>298.15</ele>
        <time>2015-01-17T11:42:00Z</time>
      </trkpt>
      <trkpt lat="43.88621" lon="3.68841">
        <ele>298.15</ele>
        <time>2015-01-17T11:42:03Z</time>
      </trkpt>
      <trkpt lat="43.88624" lon="3.68826">
        <ele>297.67</ele>
        <time>2015-01-17T11:42:21Z</time>
      </trkpt>
      <trkpt lat="43.88625" lon="3.68824">
        <ele>296.7</ele>
        <time>2015-01-17T11:42:37Z</time>
      </trkpt>
      <trkpt lat="43.88636" lon="3.68803">
        <ele>294.3</ele>
        <time>2015-01-17T11:42:51Z</time>
      </trkpt>
      <trkpt lat="43.8864" lon="3.68799">
        <ele>294.78</ele>
        <time>2015-01-17T11:42:56Z</time>
      </trkpt>
      <trkpt lat="43.88653" lon="3.68792">
        <ele>294.3</ele>
        <time>2015-01-17T11:43:05Z</time>
      </trkpt>
      <trkpt lat="43.88657" lon="3.6879">
        <ele>293.82</ele>
        <time>2015-01-17T11:43:09Z</time>
      </trkpt>
      <trkpt lat="43.88669" lon="3.68787">
        <ele>292.86</ele>
        <time>2015-01-17T11:43:20Z</time>
      </trkpt>
      <trkpt lat="43.88678" lon="3.68788">
        <ele>291.42</ele>
        <time>2015-01-17T11:43:30Z</time>
      </trkpt>
      <trkpt lat="43.88688" lon="3.68789">
        <ele>289.97</ele>
        <time>2015-01-17T11:43:52Z</time>
      </trkpt>
      <trkpt lat="43.88689" lon="3.68789">
        <ele>289.49</ele>
        <time>2015-01-17T11:44:13Z</time>
      </trkpt>
      <trkpt lat="43.88689" lon="3.68789">
        <ele>290.94</ele>
        <time>2015-01-17T11:44:16Z</time>
      </trkpt>
      <trkpt lat="43.88689" lon="3.68789">
        <ele>287.57</ele>
        <time>2015-01-17T11:44:18Z</time>
      </trkpt>
      <trkpt lat="43.88689" lon="3.68789">
        <ele>290.94</ele>
        <time>2015-01-17T11:44:19Z</time>
      </trkpt>
      <trkpt lat="43.8869" lon="3.68789">
        <ele>289.49</ele>
        <time>2015-01-17T11:44:22Z</time>
      </trkpt>
      <trkpt lat="43.8869" lon="3.68789">
        <ele>300.55</ele>
        <time>2015-01-17T11:44:23Z</time>
      </trkpt>
      <trkpt lat="43.8869" lon="3.68789">
        <ele>290.94</ele>
        <time>2015-01-17T11:44:24Z</time>
      </trkpt>
      <trkpt lat="43.8869" lon="3.68789">
        <ele>297.18</ele>
        <time>2015-01-17T11:44:26Z</time>
      </trkpt>
      <trkpt lat="43.8869" lon="3.68789">
        <ele>290.94</ele>
        <time>2015-01-17T11:44:27Z</time>
      </trkpt>
      <trkpt lat="43.8869" lon="3.68789">
        <ele>285.17</ele>
        <time>2015-01-17T11:44:30Z</time>
      </trkpt>
      <trkpt lat="43.8869" lon="3.68789">
        <ele>289.49</ele>
        <time>2015-01-17T11:44:31Z</time>
      </trkpt>
      <trkpt lat="43.8869" lon="3.68789">
        <ele>290.94</ele>
        <time>2015-01-17T11:44:34Z</time>
      </trkpt>
      <trkpt lat="43.88691" lon="3.68789">
        <ele>287.57</ele>
        <time>2015-01-17T11:44:47Z</time>
      </trkpt>
      <trkpt lat="43.88691" lon="3.68789">
        <ele>290.94</ele>
        <time>2015-01-17T11:44:48Z</time>
      </trkpt>
      <trkpt lat="43.88691" lon="3.68789">
        <ele>290.94</ele>
        <time>2015-01-17T11:45:12Z</time>
      </trkpt>
      <trkpt lat="43.88688" lon="3.68782">
        <ele>291.42</ele>
        <time>2015-01-17T11:45:36Z</time>
      </trkpt>
      <trkpt lat="43.88679" lon="3.68766">
        <ele>292.86</ele>
        <time>2015-01-17T11:45:48Z</time>
      </trkpt>
      <trkpt lat="43.88666" lon="3.68743">
        <ele>295.74</ele>
        <time>2015-01-17T11:46:07Z</time>
      </trkpt>
      <trkpt lat="43.88661" lon="3.6873">
        <ele>297.67</ele>
        <time>2015-01-17T11:46:18Z</time>
      </trkpt>
      <trkpt lat="43.88648" lon="3.68721">
        <ele>299.59</ele>
        <time>2015-01-17T11:46:37Z</time>
      </trkpt>
      <trkpt lat="43.88634" lon="3.68705">
        <ele>301.99</ele>
        <time>2015-01-17T11:46:56Z</time>
      </trkpt>
      <trkpt lat="43.88623" lon="3.68688">
        <ele>303.91</ele>
        <time>2015-01-17T11:47:13Z</time>
      </trkpt>
      <trkpt lat="43.88614" lon="3.68671">
        <ele>305.84</ele>
        <time>2015-01-17T11:47:27Z</time>
      </trkpt>
      <trkpt lat="43.88603" lon="3.6865">
        <ele>308.24</ele>
        <time>2015-01-17T11:47:44Z</time>
      </trkpt>
      <trkpt lat="43.88602" lon="3.68632">
        <ele>309.2</ele>
        <time>2015-01-17T11:48:00Z</time>
      </trkpt>
      <trkpt lat="43.88597" lon="3.68616">
        <ele>311.12</ele>
        <time>2015-01-17T11:48:14Z</time>
      </trkpt>
      <trkpt lat="43.88592" lon="3.68597">
        <ele>313.05</ele>
        <time>2015-01-17T11:48:29Z</time>
      </trkpt>
      <trkpt lat="43.8859" lon="3.68581">
        <ele>314.97</ele>
        <time>2015-01-17T11:48:43Z</time>
      </trkpt>
      <trkpt lat="43.88587" lon="3.6856">
        <ele>317.37</ele>
        <time>2015-01-17T11:48:57Z</time>
      </trkpt>
      <trkpt lat="43.88585" lon="3.68548">
        <ele>318.33</ele>
        <time>2015-01-17T11:49:04Z</time>
      </trkpt>
      <trkpt lat="43.88587" lon="3.68515">
        <ele>320.74</ele>
        <time>2015-01-17T11:49:24Z</time>
      </trkpt>
      <trkpt lat="43.8858" lon="3.68506">
        <ele>323.62</ele>
        <time>2015-01-17T11:49:41Z</time>
      </trkpt>
      <trkpt lat="43.88572" lon="3.68496">
        <ele>326.02</ele>
        <time>2015-01-17T11:49:56Z</time>
      </trkpt>
      <trkpt lat="43.88566" lon="3.68493">
        <ele>326.5</ele>
        <time>2015-01-17T11:50:04Z</time>
      </trkpt>
      <trkpt lat="43.88563" lon="3.68494">
        <ele>326.5</ele>
        <time>2015-01-17T11:50:18Z</time>
      </trkpt>
      <trkpt lat="43.88564" lon="3.68486">
        <ele>326.5</ele>
        <time>2015-01-17T11:50:34Z</time>
      </trkpt>
      <trkpt lat="43.88563" lon="3.68476">
        <ele>327.47</ele>
        <time>2015-01-17T11:50:51Z</time>
      </trkpt>
      <trkpt lat="43.88565" lon="3.68478">
        <ele>326.99</ele>
        <time>2015-01-17T11:51:09Z</time>
      </trkpt>
      <trkpt lat="43.88564" lon="3.68479">
        <ele>325.54</ele>
        <time>2015-01-17T11:51:31Z</time>
      </trkpt>
      <trkpt lat="43.88562" lon="3.68483">
        <ele>325.54</ele>
        <time>2015-01-17T11:51:53Z</time>
      </trkpt>
      <trkpt lat="43.88561" lon="3.6849">
        <ele>326.5</ele>
        <time>2015-01-17T11:52:13Z</time>
      </trkpt>
      <trkpt lat="43.88563" lon="3.68488">
        <ele>326.5</ele>
        <time>2015-01-17T11:52:37Z</time>
      </trkpt>
      <trkpt lat="43.88564" lon="3.68486">
        <ele>326.02</ele>
        <time>2015-01-17T11:53:12Z</time>
      </trkpt>
      <trkpt lat="43.88567" lon="3.68486">
        <ele>325.54</ele>
        <time>2015-01-17T11:53:34Z</time>
      </trkpt>
      <trkpt lat="43.88573" lon="3.68486">
        <ele>323.62</ele>
        <time>2015-01-17T11:53:56Z</time>
      </trkpt>
      <trkpt lat="43.88576" lon="3.68481">
        <ele>323.14</ele>
        <time>2015-01-17T11:54:03Z</time>
      </trkpt>
      <trkpt lat="43.88579" lon="3.68475">
        <ele>325.06</ele>
        <time>2015-01-17T11:54:21Z</time>
      </trkpt>
      <trkpt lat="43.88574" lon="3.68453">
        <ele>327.47</ele>
        <time>2015-01-17T11:54:37Z</time>
      </trkpt>
      <trkpt lat="43.88568" lon="3.6843">
        <ele>330.35</ele>
        <time>2015-01-17T11:54:54Z</time>
      </trkpt>
      <trkpt lat="43.88566" lon="3.68413">
        <ele>332.75</ele>
        <time>2015-01-17T11:55:10Z</time>
      </trkpt>
      <trkpt lat="43.88564" lon="3.68398">
        <ele>335.64</ele>
        <time>2015-01-17T11:55:25Z</time>
      </trkpt>
      <trkpt lat="43.88565" lon="3.68396">
        <ele>335.64</ele>
        <time>2015-01-17T11:55:28Z</time>
      </trkpt>
      <trkpt lat="43.88561" lon="3.68378">
        <ele>338.52</ele>
        <time>2015-01-17T11:55:45Z</time>
      </trkpt>
      <trkpt lat="43.8856" lon="3.68353">
        <ele>340.92</ele>
        <time>2015-01-17T11:56:01Z</time>
      </trkpt>
      <trkpt lat="43.88554" lon="3.68333">
        <ele>343.33</ele>
        <time>2015-01-17T11:56:19Z</time>
      </trkpt>
      <trkpt lat="43.88553" lon="3.68318">
        <ele>346.21</ele>
        <time>2015-01-17T11:56:35Z</time>
      </trkpt>
      <trkpt lat="43.88544" lon="3.68298">
        <ele>349.1</ele>
        <time>2015-01-17T11:56:51Z</time>
      </trkpt>
      <trkpt lat="43.88542" lon="3.68283">
        <ele>351.5</ele>
        <time>2015-01-17T11:57:05Z</time>
      </trkpt>
      <trkpt lat="43.88533" lon="3.6827">
        <ele>353.42</ele>
        <time>2015-01-17T11:57:18Z</time>
      </trkpt>
      <trkpt lat="43.88527" lon="3.68253">
        <ele>356.31</ele>
        <time>2015-01-17T11:57:34Z</time>
      </trkpt>
      <trkpt lat="43.88535" lon="3.68237">
        <ele>358.71</ele>
        <time>2015-01-17T11:57:50Z</time>
      </trkpt>
      <trkpt lat="43.88537" lon="3.68235">
        <ele>360.15</ele>
        <time>2015-01-17T11:57:54Z</time>
      </trkpt>
      <trkpt lat="43.88541" lon="3.68224">
        <ele>362.55</ele>
        <time>2015-01-17T11:58:10Z</time>
      </trkpt>
      <trkpt lat="43.88541" lon="3.68217">
        <ele>365.44</ele>
        <time>2015-01-17T11:58:24Z</time>
      </trkpt>
      <trkpt lat="43.8854" lon="3.68217">
        <ele>365.92</ele>
        <time>2015-01-17T11:58:25Z</time>
      </trkpt>
      <trkpt lat="43.88529" lon="3.68208">
        <ele>368.32</ele>
        <time>2015-01-17T11:58:45Z</time>
      </trkpt>
      <trkpt lat="43.88527" lon="3.68206">
        <ele>369.28</ele>
        <time>2015-01-17T11:58:55Z</time>
      </trkpt>
      <trkpt lat="43.88532" lon="3.68201">
        <ele>370.73</ele>
        <time>2015-01-17T11:59:04Z</time>
      </trkpt>
      <trkpt lat="43.88542" lon="3.68191">
        <ele>372.65</ele>
        <time>2015-01-17T11:59:18Z</time>
      </trkpt>
      <trkpt lat="43.88552" lon="3.68182">
        <ele>374.57</ele>
        <time>2015-01-17T11:59:30Z</time>
      </trkpt>
      <trkpt lat="43.88563" lon="3.68162">
        <ele>377.45</ele>
        <time>2015-01-17T11:59:49Z</time>
      </trkpt>
      <trkpt lat="43.88565" lon="3.68157">
        <ele>378.42</ele>
        <time>2015-01-17T11:59:54Z</time>
      </trkpt>
      <trkpt lat="43.88567" lon="3.68143">
        <ele>379.38</ele>
        <time>2015-01-17T12:00:04Z</time>
      </trkpt>
      <trkpt lat="43.88569" lon="3.68132">
        <ele>381.78</ele>
        <time>2015-01-17T12:00:15Z</time>
      </trkpt>
      <trkpt lat="43.88571" lon="3.68109">
        <ele>385.15</ele>
        <time>2015-01-17T12:00:33Z</time>
      </trkpt>
      <trkpt lat="43.88569" lon="3.6809">
        <ele>388.03</ele>
        <time>2015-01-17T12:00:51Z</time>
      </trkpt>
      <trkpt lat="43.88574" lon="3.68071">
        <ele>390.91</ele>
        <time>2015-01-17T12:01:09Z</time>
      </trkpt>
      <trkpt lat="43.88577" lon="3.68053">
        <ele>393.8</ele>
        <time>2015-01-17T12:01:24Z</time>
      </trkpt>
      <trkpt lat="43.88578" lon="3.68036">
        <ele>395.72</ele>
        <time>2015-01-17T12:01:39Z</time>
      </trkpt>
      <trkpt lat="43.88576" lon="3.68016">
        <ele>399.57</ele>
        <time>2015-01-17T12:01:57Z</time>
      </trkpt>
      <trkpt lat="43.8858" lon="3.68007">
        <ele>400.05</ele>
        <time>2015-01-17T12:02:18Z</time>
      </trkpt>
      <trkpt lat="43.8858" lon="3.68002">
        <ele>401.01</ele>
        <time>2015-01-17T12:02:22Z</time>
      </trkpt>
      <trkpt lat="43.88582" lon="3.67999">
        <ele>401.49</ele>
        <time>2015-01-17T12:02:25Z</time>
      </trkpt>
      <trkpt lat="43.88584" lon="3.67987">
        <ele>402.93</ele>
        <time>2015-01-17T12:02:34Z</time>
      </trkpt>
      <trkpt lat="43.88584" lon="3.67969">
        <ele>404.85</ele>
        <time>2015-01-17T12:02:47Z</time>
      </trkpt>
      <trkpt lat="43.88581" lon="3.67949">
        <ele>407.26</ele>
        <time>2015-01-17T12:03:00Z</time>
      </trkpt>
      <trkpt lat="43.88582" lon="3.67927">
        <ele>409.66</ele>
        <time>2015-01-17T12:03:15Z</time>
      </trkpt>
      <trkpt lat="43.88582" lon="3.67915">
        <ele>411.1</ele>
        <time>2015-01-17T12:03:25Z</time>
      </trkpt>
      <trkpt lat="43.88581" lon="3.679">
        <ele>413.02</ele>
        <time>2015-01-17T12:03:41Z</time>
      </trkpt>
      <trkpt lat="43.8858" lon="3.67898">
        <ele>413.02</ele>
        <time>2015-01-17T12:03:43Z</time>
      </trkpt>
      <trkpt lat="43.88581" lon="3.67896">
        <ele>413.5</ele>
        <time>2015-01-17T12:03:45Z</time>
      </trkpt>
      <trkpt lat="43.88583" lon="3.67884">
        <ele>414.95</ele>
        <time>2015-01-17T12:03:56Z</time>
      </trkpt>
      <trkpt lat="43.88587" lon="3.67871">
        <ele>417.35</ele>
        <time>2015-01-17T12:04:08Z</time>
      </trkpt>
      <trkpt lat="43.88594" lon="3.67855">
        <ele>419.27</ele>
        <time>2015-01-17T12:04:24Z</time>
      </trkpt>
      <trkpt lat="43.88595" lon="3.67842">
        <ele>422.16</ele>
        <time>2015-01-17T12:04:36Z</time>
      </trkpt>
      <trkpt lat="43.88605" lon="3.67823">
        <ele>423.6</ele>
        <time>2015-01-17T12:04:48Z</time>
      </trkpt>
      <trkpt lat="43.88607" lon="3.67822">
        <ele>424.08</ele>
        <time>2015-01-17T12:04:50Z</time>
      </trkpt>
      <trkpt lat="43.88612" lon="3.67814">
        <ele>426.48</ele>
        <time>2015-01-17T12:05:00Z</time>
      </trkpt>
      <trkpt lat="43.88613" lon="3.67805">
        <ele>428.4</ele>
        <time>2015-01-17T12:05:12Z</time>
      </trkpt>
      <trkpt lat="43.8862" lon="3.67797">
        <ele>430.33</ele>
        <time>2015-01-17T12:05:21Z</time>
      </trkpt>
      <trkpt lat="43.88627" lon="3.67783">
        <ele>433.21</ele>
        <time>2015-01-17T12:05:38Z</time>
      </trkpt>
      <trkpt lat="43.88635" lon="3.67771">
        <ele>436.1</ele>
        <time>2015-01-17T12:05:53Z</time>
      </trkpt>
      <trkpt lat="43.88643" lon="3.67757">
        <ele>438.98</ele>
        <time>2015-01-17T12:06:09Z</time>
      </trkpt>
      <trkpt lat="43.88648" lon="3.67743">
        <ele>441.86</ele>
        <time>2015-01-17T12:06:23Z</time>
      </trkpt>
      <trkpt lat="43.88653" lon="3.67729">
        <ele>444.27</ele>
        <time>2015-01-17T12:06:38Z</time>
      </trkpt>
      <trkpt lat="43.8866" lon="3.67714">
        <ele>447.15</ele>
        <time>2015-01-17T12:06:54Z</time>
      </trkpt>
      <trkpt lat="43.88668" lon="3.67701">
        <ele>450.52</ele>
        <time>2015-01-17T12:07:11Z</time>
      </trkpt>
      <trkpt lat="43.88672" lon="3.67684">
        <ele>451.96</ele>
        <time>2015-01-17T12:07:26Z</time>
      </trkpt>
      <trkpt lat="43.88676" lon="3.67663">
        <ele>454.84</ele>
        <time>2015-01-17T12:07:43Z</time>
      </trkpt>
      <trkpt lat="43.88676" lon="3.67643">
        <ele>457.24</ele>
        <time>2015-01-17T12:07:59Z</time>
      </trkpt>
      <trkpt lat="43.88678" lon="3.67624">
        <ele>460.13</ele>
        <time>2015-01-17T12:08:16Z</time>
      </trkpt>
      <trkpt lat="43.8868" lon="3.67607">
        <ele>463.49</ele>
        <time>2015-01-17T12:08:33Z</time>
      </trkpt>
      <trkpt lat="43.88684" lon="3.67589">
        <ele>466.86</ele>
        <time>2015-01-17T12:08:50Z</time>
      </trkpt>
      <trkpt lat="43.8869" lon="3.67571">
        <ele>467.34</ele>
        <time>2015-01-17T12:09:05Z</time>
      </trkpt>
      <trkpt lat="43.88697" lon="3.67562">
        <ele>468.3</ele>
        <time>2015-01-17T12:09:24Z</time>
      </trkpt>
      <trkpt lat="43.88703" lon="3.67561">
        <ele>469.26</ele>
        <time>2015-01-17T12:09:36Z</time>
      </trkpt>
      <trkpt lat="43.88709" lon="3.6756">
        <ele>470.22</ele>
        <time>2015-01-17T12:09:40Z</time>
      </trkpt>
      <trkpt lat="43.88714" lon="3.67568">
        <ele>470.22</ele>
        <time>2015-01-17T12:10:01Z</time>
      </trkpt>
      <trkpt lat="43.88716" lon="3.67578">
        <ele>471.18</ele>
        <time>2015-01-17T12:10:18Z</time>
      </trkpt>
      <trkpt lat="43.88721" lon="3.67583">
        <ele>471.18</ele>
        <time>2015-01-17T12:10:39Z</time>
      </trkpt>
      <trkpt lat="43.88721" lon="3.67582">
        <ele>470.22</ele>
        <time>2015-01-17T12:11:02Z</time>
      </trkpt>
      <trkpt lat="43.88721" lon="3.67582">
        <ele>469.74</ele>
        <time>2015-01-17T12:11:35Z</time>
      </trkpt>
      <trkpt lat="43.88721" lon="3.67581">
        <ele>474.55</ele>
        <time>2015-01-17T12:11:39Z</time>
      </trkpt>
      <trkpt lat="43.88721" lon="3.67581">
        <ele>468.78</ele>
        <time>2015-01-17T12:11:40Z</time>
      </trkpt>
      <trkpt lat="43.88721" lon="3.67581">
        <ele>470.22</ele>
        <time>2015-01-17T12:11:41Z</time>
      </trkpt>
      <trkpt lat="43.88721" lon="3.67582">
        <ele>473.59</ele>
        <time>2015-01-17T12:11:58Z</time>
      </trkpt>
      <trkpt lat="43.88721" lon="3.67582">
        <ele>469.74</ele>
        <time>2015-01-17T12:11:59Z</time>
      </trkpt>
      <trkpt lat="43.88721" lon="3.67582">
        <ele>470.22</ele>
        <time>2015-01-17T12:12:26Z</time>
      </trkpt>
      <trkpt lat="43.88721" lon="3.67583">
        <ele>470.22</ele>
        <time>2015-01-17T12:13:03Z</time>
      </trkpt>
      <trkpt lat="43.88721" lon="3.67583">
        <ele>469.74</ele>
        <time>2015-01-17T12:13:49Z</time>
      </trkpt>
      <trkpt lat="43.88721" lon="3.67582">
        <ele>470.22</ele>
        <time>2015-01-17T12:14:35Z</time>
      </trkpt>
      <trkpt lat="43.88722" lon="3.67582">
        <ele>470.22</ele>
        <time>2015-01-17T12:15:18Z</time>
      </trkpt>
      <trkpt lat="43.88722" lon="3.67582">
        <ele>470.7</ele>
        <time>2015-01-17T12:16:03Z</time>
      </trkpt>
      <trkpt lat="43.88722" lon="3.67583">
        <ele>471.18</ele>
        <time>2015-01-17T12:16:51Z</time>
      </trkpt>
      <trkpt lat="43.88722" lon="3.67583">
        <ele>470.7</ele>
        <time>2015-01-17T12:17:35Z</time>
      </trkpt>
      <trkpt lat="43.88721" lon="3.67583">
        <ele>470.7</ele>
        <time>2015-01-17T12:18:21Z</time>
      </trkpt>
      <trkpt lat="43.88721" lon="3.67584">
        <ele>470.22</ele>
        <time>2015-01-17T12:19:02Z</time>
      </trkpt>
      <trkpt lat="43.8872" lon="3.67583">
        <ele>470.7</ele>
        <time>2015-01-17T12:19:51Z</time>
      </trkpt>
      <trkpt lat="43.88719" lon="3.67583">
        <ele>470.7</ele>
        <time>2015-01-17T12:20:38Z</time>
      </trkpt>
      <trkpt lat="43.88719" lon="3.67582">
        <ele>470.7</ele>
        <time>2015-01-17T12:21:26Z</time>
      </trkpt>
      <trkpt lat="43.8872" lon="3.67582">
        <ele>470.7</ele>
        <time>2015-01-17T12:22:14Z</time>
      </trkpt>
      <trkpt lat="43.8872" lon="3.67582">
        <ele>470.22</ele>
        <time>2015-01-17T12:22:55Z</time>
      </trkpt>
      <trkpt lat="43.8872" lon="3.67581">
        <ele>470.7</ele>
        <time>2015-01-17T12:23:35Z</time>
      </trkpt>
      <trkpt lat="43.88721" lon="3.67581">
        <ele>470.7</ele>
        <time>2015-01-17T12:24:18Z</time>
      </trkpt>
      <trkpt lat="43.8872" lon="3.6758">
        <ele>470.7</ele>
        <time>2015-01-17T12:25:00Z</time>
      </trkpt>
      <trkpt lat="43.88721" lon="3.67579">
        <ele>470.7</ele>
        <time>2015-01-17T12:25:50Z</time>
      </trkpt>
      <trkpt lat="43.88721" lon="3.67578">
        <ele>470.7</ele>
        <time>2015-01-17T12:26:31Z</time>
      </trkpt>
      <trkpt lat="43.88723" lon="3.67578">
        <ele>471.18</ele>
        <time>2015-01-17T12:27:23Z</time>
      </trkpt>
      <trkpt lat="43.88723" lon="3.67577">
        <ele>470.7</ele>
        <time>2015-01-17T12:28:12Z</time>
      </trkpt>
      <trkpt lat="43.88723" lon="3.67577">
        <ele>470.7</ele>
        <time>2015-01-17T12:29:00Z</time>
      </trkpt>
      <trkpt lat="43.88723" lon="3.67577">
        <ele>470.7</ele>
        <time>2015-01-17T12:29:46Z</time>
      </trkpt>
      <trkpt lat="43.88724" lon="3.67577">
        <ele>470.22</ele>
        <time>2015-01-17T12:30:37Z</time>
      </trkpt>
      <trkpt lat="43.88723" lon="3.67578">
        <ele>469.74</ele>
        <time>2015-01-17T12:31:26Z</time>
      </trkpt>
      <trkpt lat="43.88723" lon="3.67578">
        <ele>470.22</ele>
        <time>2015-01-17T12:32:15Z</time>
      </trkpt>
      <trkpt lat="43.88722" lon="3.67578">
        <ele>469.74</ele>
        <time>2015-01-17T12:32:59Z</time>
      </trkpt>
      <trkpt lat="43.88722" lon="3.67579">
        <ele>469.74</ele>
        <time>2015-01-17T12:33:43Z</time>
      </trkpt>
      <trkpt lat="43.88721" lon="3.67579">
        <ele>470.22</ele>
        <time>2015-01-17T12:34:23Z</time>
      </trkpt>
      <trkpt lat="43.88722" lon="3.6758">
        <ele>470.22</ele>
        <time>2015-01-17T12:35:06Z</time>
      </trkpt>
      <trkpt lat="43.88722" lon="3.67581">
        <ele>470.22</ele>
        <time>2015-01-17T12:35:50Z</time>
      </trkpt>
      <trkpt lat="43.88721" lon="3.67581">
        <ele>471.66</ele>
        <time>2015-01-17T12:36:22Z</time>
      </trkpt>
      <trkpt lat="43.88721" lon="3.67582">
        <ele>471.18</ele>
        <time>2015-01-17T12:36:39Z</time>
      </trkpt>
      <trkpt lat="43.88719" lon="3.67582">
        <ele>470.7</ele>
        <time>2015-01-17T12:37:09Z</time>
      </trkpt>
      <trkpt lat="43.88712" lon="3.67566">
        <ele>470.7</ele>
        <time>2015-01-17T12:37:28Z</time>
      </trkpt>
      <trkpt lat="43.88713" lon="3.67563">
        <ele>470.7</ele>
        <time>2015-01-17T12:37:31Z</time>
      </trkpt>
      <trkpt lat="43.88714" lon="3.67561">
        <ele>471.18</ele>
        <time>2015-01-17T12:37:33Z</time>
      </trkpt>
      <trkpt lat="43.88721" lon="3.67546">
        <ele>471.66</ele>
        <time>2015-01-17T12:37:47Z</time>
      </trkpt>
      <trkpt lat="43.88717" lon="3.67532">
        <ele>472.14</ele>
        <time>2015-01-17T12:37:56Z</time>
      </trkpt>
      <trkpt lat="43.88712" lon="3.67527">
        <ele>472.14</ele>
        <time>2015-01-17T12:38:01Z</time>
      </trkpt>
      <trkpt lat="43.88697" lon="3.67525">
        <ele>472.63</ele>
        <time>2015-01-17T12:38:13Z</time>
      </trkpt>
      <trkpt lat="43.88695" lon="3.67525">
        <ele>472.63</ele>
        <time>2015-01-17T12:38:15Z</time>
      </trkpt>
      <trkpt lat="43.88672" lon="3.67515">
        <ele>475.03</ele>
        <time>2015-01-17T12:38:35Z</time>
      </trkpt>
      <trkpt lat="43.88664" lon="3.67507">
        <ele>476.47</ele>
        <time>2015-01-17T12:38:44Z</time>
      </trkpt>
      <trkpt lat="43.88662" lon="3.67506">
        <ele>476.95</ele>
        <time>2015-01-17T12:38:49Z</time>
      </trkpt>
      <trkpt lat="43.8866" lon="3.67502">
        <ele>476.95</ele>
        <time>2015-01-17T12:38:52Z</time>
      </trkpt>
      <trkpt lat="43.88644" lon="3.67483">
        <ele>477.91</ele>
        <time>2015-01-17T12:39:10Z</time>
      </trkpt>
      <trkpt lat="43.88635" lon="3.6749">
        <ele>479.84</ele>
        <time>2015-01-17T12:39:28Z</time>
      </trkpt>
      <trkpt lat="43.88625" lon="3.67498">
        <ele>482.24</ele>
        <time>2015-01-17T12:39:49Z</time>
      </trkpt>
      <trkpt lat="43.88625" lon="3.67498">
        <ele>482.24</ele>
        <time>2015-01-17T12:39:54Z</time>
      </trkpt>
      <trkpt lat="43.88618" lon="3.67499">
        <ele>483.2</ele>
        <time>2015-01-17T12:40:00Z</time>
      </trkpt>
      <trkpt lat="43.88613" lon="3.675">
        <ele>484.16</ele>
        <time>2015-01-17T12:40:05Z</time>
      </trkpt>
      <trkpt lat="43.88608" lon="3.67501">
        <ele>484.64</ele>
        <time>2015-01-17T12:40:10Z</time>
      </trkpt>
      <trkpt lat="43.88588" lon="3.67496">
        <ele>488.01</ele>
        <time>2015-01-17T12:40:30Z</time>
      </trkpt>
      <trkpt lat="43.88572" lon="3.67489">
        <ele>490.89</ele>
        <time>2015-01-17T12:40:47Z</time>
      </trkpt>
      <trkpt lat="43.88559" lon="3.67486">
        <ele>493.29</ele>
        <time>2015-01-17T12:41:01Z</time>
      </trkpt>
      <trkpt lat="43.88548" lon="3.67487">
        <ele>495.22</ele>
        <time>2015-01-17T12:41:14Z</time>
      </trkpt>
      <trkpt lat="43.88532" lon="3.6749">
        <ele>498.58</ele>
        <time>2015-01-17T12:41:32Z</time>
      </trkpt>
      <trkpt lat="43.88523" lon="3.67494">
        <ele>500.5</ele>
        <time>2015-01-17T12:41:43Z</time>
      </trkpt>
      <trkpt lat="43.88508" lon="3.67495">
        <ele>504.35</ele>
        <time>2015-01-17T12:42:01Z</time>
      </trkpt>
      <trkpt lat="43.88504" lon="3.67498">
        <ele>505.31</ele>
        <time>2015-01-17T12:42:07Z</time>
      </trkpt>
      <trkpt lat="43.88491" lon="3.67507">
        <ele>508.19</ele>
        <time>2015-01-17T12:42:26Z</time>
      </trkpt>
      <trkpt lat="43.88487" lon="3.67511">
        <ele>509.64</ele>
        <time>2015-01-17T12:42:33Z</time>
      </trkpt>
      <trkpt lat="43.88475" lon="3.67518">
        <ele>512.04</ele>
        <time>2015-01-17T12:42:51Z</time>
      </trkpt>
      <trkpt lat="43.88466" lon="3.67523">
        <ele>515.4</ele>
        <time>2015-01-17T12:43:05Z</time>
      </trkpt>
      <trkpt lat="43.88451" lon="3.67537">
        <ele>517.81</ele>
        <time>2015-01-17T12:43:26Z</time>
      </trkpt>
      <trkpt lat="43.88441" lon="3.6754">
        <ele>520.69</ele>
        <time>2015-01-17T12:43:39Z</time>
      </trkpt>
      <trkpt lat="43.88427" lon="3.67544">
        <ele>524.06</ele>
        <time>2015-01-17T12:43:58Z</time>
      </trkpt>
      <trkpt lat="43.88415" lon="3.67547">
        <ele>527.42</ele>
        <time>2015-01-17T12:44:16Z</time>
      </trkpt>
      <trkpt lat="43.88402" lon="3.67551">
        <ele>530.79</ele>
        <time>2015-01-17T12:44:37Z</time>
      </trkpt>
      <trkpt lat="43.88402" lon="3.67551">
        <ele>530.79</ele>
        <time>2015-01-17T12:44:38Z</time>
      </trkpt>
      <trkpt lat="43.88395" lon="3.67539">
        <ele>533.67</ele>
        <time>2015-01-17T12:44:54Z</time>
      </trkpt>
      <trkpt lat="43.8839" lon="3.67542">
        <ele>535.11</ele>
        <time>2015-01-17T12:45:02Z</time>
      </trkpt>
      <trkpt lat="43.88378" lon="3.67553">
        <ele>537.99</ele>
        <time>2015-01-17T12:45:21Z</time>
      </trkpt>
      <trkpt lat="43.88368" lon="3.67564">
        <ele>541.36</ele>
        <time>2015-01-17T12:45:38Z</time>
      </trkpt>
      <trkpt lat="43.88357" lon="3.67576">
        <ele>542.32</ele>
        <time>2015-01-17T12:45:56Z</time>
      </trkpt>
      <trkpt lat="43.88356" lon="3.67578">
        <ele>542.8</ele>
        <time>2015-01-17T12:46:22Z</time>
      </trkpt>
      <trkpt lat="43.88356" lon="3.67577">
        <ele>542.8</ele>
        <time>2015-01-17T12:46:48Z</time>
      </trkpt>
      <trkpt lat="43.88356" lon="3.67576">
        <ele>542.32</ele>
        <time>2015-01-17T12:47:27Z</time>
      </trkpt>
      <trkpt lat="43.88351" lon="3.67577">
        <ele>543.28</ele>
        <time>2015-01-17T12:47:47Z</time>
      </trkpt>
      <trkpt lat="43.88347" lon="3.6758">
        <ele>544.72</ele>
        <time>2015-01-17T12:47:53Z</time>
      </trkpt>
      <trkpt lat="43.88339" lon="3.67584">
        <ele>546.65</ele>
        <time>2015-01-17T12:48:04Z</time>
      </trkpt>
      <trkpt lat="43.88332" lon="3.67587">
        <ele>548.09</ele>
        <time>2015-01-17T12:48:11Z</time>
      </trkpt>
      <trkpt lat="43.88326" lon="3.67593">
        <ele>549.53</ele>
        <time>2015-01-17T12:48:21Z</time>
      </trkpt>
      <trkpt lat="43.88313" lon="3.67597">
        <ele>552.41</ele>
        <time>2015-01-17T12:48:38Z</time>
      </trkpt>
      <trkpt lat="43.88298" lon="3.67599">
        <ele>555.3</ele>
        <time>2015-01-17T12:48:56Z</time>
      </trkpt>
      <trkpt lat="43.88284" lon="3.67599">
        <ele>557.7</ele>
        <time>2015-01-17T12:49:13Z</time>
      </trkpt>
      <trkpt lat="43.88276" lon="3.67604">
        <ele>559.14</ele>
        <time>2015-01-17T12:49:27Z</time>
      </trkpt>
      <trkpt lat="43.88268" lon="3.67604">
        <ele>562.51</ele>
        <time>2015-01-17T12:49:42Z</time>
      </trkpt>
      <trkpt lat="43.88256" lon="3.67603">
        <ele>565.39</ele>
        <time>2015-01-17T12:49:56Z</time>
      </trkpt>
      <trkpt lat="43.88244" lon="3.67602">
        <ele>568.76</ele>
        <time>2015-01-17T12:50:14Z</time>
      </trkpt>
      <trkpt lat="43.88243" lon="3.67602">
        <ele>568.76</ele>
        <time>2015-01-17T12:50:15Z</time>
      </trkpt>
      <trkpt lat="43.88229" lon="3.67607">
        <ele>571.64</ele>
        <time>2015-01-17T12:50:34Z</time>
      </trkpt>
      <trkpt lat="43.88225" lon="3.67608">
        <ele>572.6</ele>
        <time>2015-01-17T12:50:39Z</time>
      </trkpt>
      <trkpt lat="43.88211" lon="3.67612">
        <ele>575.49</ele>
        <time>2015-01-17T12:50:59Z</time>
      </trkpt>
      <trkpt lat="43.88202" lon="3.67622">
        <ele>577.89</ele>
        <time>2015-01-17T12:51:16Z</time>
      </trkpt>
      <trkpt lat="43.88193" lon="3.67628">
        <ele>580.77</ele>
        <time>2015-01-17T12:51:31Z</time>
      </trkpt>
      <trkpt lat="43.88186" lon="3.67636">
        <ele>582.22</ele>
        <time>2015-01-17T12:51:43Z</time>
      </trkpt>
      <trkpt lat="43.88177" lon="3.67648">
        <ele>584.62</ele>
        <time>2015-01-17T12:52:01Z</time>
      </trkpt>
      <trkpt lat="43.88169" lon="3.67661">
        <ele>586.54</ele>
        <time>2015-01-17T12:52:17Z</time>
      </trkpt>
      <trkpt lat="43.88162" lon="3.67666">
        <ele>589.91</ele>
        <time>2015-01-17T12:52:34Z</time>
      </trkpt>
      <trkpt lat="43.8816" lon="3.67659">
        <ele>593.27</ele>
        <time>2015-01-17T12:52:49Z</time>
      </trkpt>
      <trkpt lat="43.88157" lon="3.67654">
        <ele>596.64</ele>
        <time>2015-01-17T12:53:02Z</time>
      </trkpt>
      <trkpt lat="43.8815" lon="3.67657">
        <ele>599.04</ele>
        <time>2015-01-17T12:53:20Z</time>
      </trkpt>
      <trkpt lat="43.88148" lon="3.67658">
        <ele>600</ele>
        <time>2015-01-17T12:53:25Z</time>
      </trkpt>
      <trkpt lat="43.88141" lon="3.67662">
        <ele>602.88</ele>
        <time>2015-01-17T12:53:42Z</time>
      </trkpt>
      <trkpt lat="43.88137" lon="3.6766">
        <ele>606.25</ele>
        <time>2015-01-17T12:53:58Z</time>
      </trkpt>
      <trkpt lat="43.88134" lon="3.67654">
        <ele>607.21</ele>
        <time>2015-01-17T12:54:15Z</time>
      </trkpt>
      <trkpt lat="43.88134" lon="3.67654">
        <ele>608.17</ele>
        <time>2015-01-17T12:54:39Z</time>
      </trkpt>
      <trkpt lat="43.88133" lon="3.67654">
        <ele>607.69</ele>
        <time>2015-01-17T12:55:14Z</time>
      </trkpt>
      <trkpt lat="43.88133" lon="3.67651">
        <ele>609.61</ele>
        <time>2015-01-17T12:55:20Z</time>
      </trkpt>
      <trkpt lat="43.88131" lon="3.67641">
        <ele>612.5</ele>
        <time>2015-01-17T12:55:36Z</time>
      </trkpt>
      <trkpt lat="43.88127" lon="3.67631">
        <ele>615.86</ele>
        <time>2015-01-17T12:55:51Z</time>
      </trkpt>
      <trkpt lat="43.88121" lon="3.67627">
        <ele>619.23</ele>
        <time>2015-01-17T12:56:09Z</time>
      </trkpt>
      <trkpt lat="43.88122" lon="3.67614">
        <ele>621.15</ele>
        <time>2015-01-17T12:56:26Z</time>
      </trkpt>
      <trkpt lat="43.88119" lon="3.67606">
        <ele>624.51</ele>
        <time>2015-01-17T12:56:41Z</time>
      </trkpt>
      <trkpt lat="43.88116" lon="3.67594">
        <ele>627.4</ele>
        <time>2015-01-17T12:56:57Z</time>
      </trkpt>
      <trkpt lat="43.88116" lon="3.67585">
        <ele>630.76</ele>
        <time>2015-01-17T12:57:12Z</time>
      </trkpt>
      <trkpt lat="43.88116" lon="3.67585">
        <ele>630.76</ele>
        <time>2015-01-17T12:57:13Z</time>
      </trkpt>
      <trkpt lat="43.88113" lon="3.67575">
        <ele>633.65</ele>
        <time>2015-01-17T12:57:29Z</time>
      </trkpt>
      <trkpt lat="43.88109" lon="3.67572">
        <ele>636.53</ele>
        <time>2015-01-17T12:57:47Z</time>
      </trkpt>
      <trkpt lat="43.88112" lon="3.67562">
        <ele>637.97</ele>
        <time>2015-01-17T12:58:02Z</time>
      </trkpt>
      <trkpt lat="43.88111" lon="3.67553">
        <ele>640.86</ele>
        <time>2015-01-17T12:58:19Z</time>
      </trkpt>
      <trkpt lat="43.88108" lon="3.67552">
        <ele>642.78</ele>
        <time>2015-01-17T12:58:35Z</time>
      </trkpt>
      <trkpt lat="43.88107" lon="3.67546">
        <ele>644.7</ele>
        <time>2015-01-17T12:58:50Z</time>
      </trkpt>
      <trkpt lat="43.88106" lon="3.67542">
        <ele>646.62</ele>
        <time>2015-01-17T12:58:56Z</time>
      </trkpt>
      <trkpt lat="43.88106" lon="3.67537">
        <ele>646.62</ele>
        <time>2015-01-17T12:59:01Z</time>
      </trkpt>
      <trkpt lat="43.88107" lon="3.67528">
        <ele>648.55</ele>
        <time>2015-01-17T12:59:13Z</time>
      </trkpt>
      <trkpt lat="43.88112" lon="3.67514">
        <ele>649.03</ele>
        <time>2015-01-17T12:59:29Z</time>
      </trkpt>
      <trkpt lat="43.88109" lon="3.67499">
        <ele>651.91</ele>
        <time>2015-01-17T12:59:46Z</time>
      </trkpt>
      <trkpt lat="43.88109" lon="3.67496">
        <ele>653.35</ele>
        <time>2015-01-17T12:59:48Z</time>
      </trkpt>
      <trkpt lat="43.88113" lon="3.67484">
        <ele>653.83</ele>
        <time>2015-01-17T13:00:00Z</time>
      </trkpt>
      <trkpt lat="43.88117" lon="3.67476">
        <ele>654.8</ele>
        <time>2015-01-17T13:00:08Z</time>
      </trkpt>
      <trkpt lat="43.8812" lon="3.6747">
        <ele>655.28</ele>
        <time>2015-01-17T13:00:14Z</time>
      </trkpt>
      <trkpt lat="43.8812" lon="3.67466">
        <ele>656.24</ele>
        <time>2015-01-17T13:00:17Z</time>
      </trkpt>
      <trkpt lat="43.88121" lon="3.67462">
        <ele>657.2</ele>
        <time>2015-01-17T13:00:21Z</time>
      </trkpt>
      <trkpt lat="43.88123" lon="3.67458">
        <ele>658.16</ele>
        <time>2015-01-17T13:00:24Z</time>
      </trkpt>
      <trkpt lat="43.88126" lon="3.67443">
        <ele>661.04</ele>
        <time>2015-01-17T13:00:42Z</time>
      </trkpt>
      <trkpt lat="43.88133" lon="3.67434">
        <ele>663.45</ele>
        <time>2015-01-17T13:01:00Z</time>
      </trkpt>
      <trkpt lat="43.88134" lon="3.67434">
        <ele>663.45</ele>
        <time>2015-01-17T13:01:27Z</time>
      </trkpt>
      <trkpt lat="43.88133" lon="3.67432">
        <ele>663.93</ele>
        <time>2015-01-17T13:02:06Z</time>
      </trkpt>
      <trkpt lat="43.88134" lon="3.67431">
        <ele>663.45</ele>
        <time>2015-01-17T13:02:30Z</time>
      </trkpt>
      <trkpt lat="43.88134" lon="3.6743">
        <ele>663.93</ele>
        <time>2015-01-17T13:02:41Z</time>
      </trkpt>
      <trkpt lat="43.88132" lon="3.67427">
        <ele>663.93</ele>
        <time>2015-01-17T13:02:46Z</time>
      </trkpt>
      <trkpt lat="43.88131" lon="3.67422">
        <ele>665.37</ele>
        <time>2015-01-17T13:02:54Z</time>
      </trkpt>
      <trkpt lat="43.8813" lon="3.6741">
        <ele>666.81</ele>
        <time>2015-01-17T13:03:10Z</time>
      </trkpt>
      <trkpt lat="43.88128" lon="3.67409">
        <ele>666.81</ele>
        <time>2015-01-17T13:03:24Z</time>
      </trkpt>
      <trkpt lat="43.88126" lon="3.67406">
        <ele>666.81</ele>
        <time>2015-01-17T13:03:30Z</time>
      </trkpt>
      <trkpt lat="43.88123" lon="3.67404">
        <ele>667.29</ele>
        <time>2015-01-17T13:03:34Z</time>
      </trkpt>
      <trkpt lat="43.88118" lon="3.67401">
        <ele>667.29</ele>
        <time>2015-01-17T13:03:40Z</time>
      </trkpt>
      <trkpt lat="43.88106" lon="3.67386">
        <ele>669.22</ele>
        <time>2015-01-17T13:03:59Z</time>
      </trkpt>
      <trkpt lat="43.88105" lon="3.67384">
        <ele>669.7</ele>
        <time>2015-01-17T13:04:01Z</time>
      </trkpt>
      <trkpt lat="43.88097" lon="3.67374">
        <ele>670.18</ele>
        <time>2015-01-17T13:04:20Z</time>
      </trkpt>
      <trkpt lat="43.88093" lon="3.67374">
        <ele>670.66</ele>
        <time>2015-01-17T13:04:42Z</time>
      </trkpt>
      <trkpt lat="43.88092" lon="3.67372">
        <ele>670.18</ele>
        <time>2015-01-17T13:05:11Z</time>
      </trkpt>
      <trkpt lat="43.88091" lon="3.67372">
        <ele>670.18</ele>
        <time>2015-01-17T13:05:41Z</time>
      </trkpt>
      <trkpt lat="43.8809" lon="3.67371">
        <ele>669.7</ele>
        <time>2015-01-17T13:06:14Z</time>
      </trkpt>
      <trkpt lat="43.8809" lon="3.67372">
        <ele>670.18</ele>
        <time>2015-01-17T13:06:40Z</time>
      </trkpt>
      <trkpt lat="43.8809" lon="3.67373">
        <ele>676.42</ele>
        <time>2015-01-17T13:06:45Z</time>
      </trkpt>
      <trkpt lat="43.8809" lon="3.67373">
        <ele>670.18</ele>
        <time>2015-01-17T13:06:46Z</time>
      </trkpt>
      <trkpt lat="43.8809" lon="3.67374">
        <ele>664.41</ele>
        <time>2015-01-17T13:06:50Z</time>
      </trkpt>
      <trkpt lat="43.8809" lon="3.67374">
        <ele>669.22</ele>
        <time>2015-01-17T13:06:51Z</time>
      </trkpt>
      <trkpt lat="43.8809" lon="3.67374">
        <ele>673.06</ele>
        <time>2015-01-17T13:06:54Z</time>
      </trkpt>
      <trkpt lat="43.8809" lon="3.67374">
        <ele>666.81</ele>
        <time>2015-01-17T13:06:55Z</time>
      </trkpt>
      <trkpt lat="43.8809" lon="3.67374">
        <ele>670.18</ele>
        <time>2015-01-17T13:06:56Z</time>
      </trkpt>
      <trkpt lat="43.88091" lon="3.67374">
        <ele>674.5</ele>
        <time>2015-01-17T13:06:58Z</time>
      </trkpt>
      <trkpt lat="43.88091" lon="3.67374">
        <ele>670.18</ele>
        <time>2015-01-17T13:06:59Z</time>
      </trkpt>
      <trkpt lat="43.88091" lon="3.67374">
        <ele>663.45</ele>
        <time>2015-01-17T13:07:02Z</time>
      </trkpt>
      <trkpt lat="43.88091" lon="3.67374">
        <ele>671.14</ele>
        <time>2015-01-17T13:07:03Z</time>
      </trkpt>
      <trkpt lat="43.88091" lon="3.67374">
        <ele>666.33</ele>
        <time>2015-01-17T13:07:05Z</time>
      </trkpt>
      <trkpt lat="43.88091" lon="3.67374">
        <ele>671.14</ele>
        <time>2015-01-17T13:07:06Z</time>
      </trkpt>
      <trkpt lat="43.88091" lon="3.67373">
        <ele>671.14</ele>
        <time>2015-01-17T13:07:37Z</time>
      </trkpt>
      <trkpt lat="43.88088" lon="3.67379">
        <ele>668.25</ele>
        <time>2015-01-17T13:07:55Z</time>
      </trkpt>
      <trkpt lat="43.88084" lon="3.67391">
        <ele>665.37</ele>
        <time>2015-01-17T13:08:07Z</time>
      </trkpt>
      <trkpt lat="43.88081" lon="3.67402">
        <ele>665.37</ele>
        <time>2015-01-17T13:08:15Z</time>
      </trkpt>
      <trkpt lat="43.88077" lon="3.67411">
        <ele>663.93</ele>
        <time>2015-01-17T13:08:22Z</time>
      </trkpt>
      <trkpt lat="43.88077" lon="3.67415">
        <ele>663.45</ele>
        <time>2015-01-17T13:08:25Z</time>
      </trkpt>
      <trkpt lat="43.88074" lon="3.67429">
        <ele>661.04</ele>
        <time>2015-01-17T13:08:35Z</time>
      </trkpt>
      <trkpt lat="43.88063" lon="3.67454">
        <ele>659.6</ele>
        <time>2015-01-17T13:08:53Z</time>
      </trkpt>
      <trkpt lat="43.88062" lon="3.67455">
        <ele>658.64</ele>
        <time>2015-01-17T13:08:54Z</time>
      </trkpt>
      <trkpt lat="43.88053" lon="3.67472">
        <ele>655.76</ele>
        <time>2015-01-17T13:09:07Z</time>
      </trkpt>
      <trkpt lat="43.88044" lon="3.67485">
        <ele>654.31</ele>
        <time>2015-01-17T13:09:24Z</time>
      </trkpt>
      <trkpt lat="43.88038" lon="3.67492">
        <ele>650.95</ele>
        <time>2015-01-17T13:09:41Z</time>
      </trkpt>
      <trkpt lat="43.88035" lon="3.67499">
        <ele>649.51</ele>
        <time>2015-01-17T13:09:48Z</time>
      </trkpt>
      <trkpt lat="43.88032" lon="3.675">
        <ele>649.03</ele>
        <time>2015-01-17T13:09:50Z</time>
      </trkpt>
      <trkpt lat="43.88025" lon="3.6751">
        <ele>647.1</ele>
        <time>2015-01-17T13:09:58Z</time>
      </trkpt>
      <trkpt lat="43.88022" lon="3.67516">
        <ele>646.14</ele>
        <time>2015-01-17T13:10:02Z</time>
      </trkpt>
      <trkpt lat="43.8802" lon="3.67529">
        <ele>645.66</ele>
        <time>2015-01-17T13:10:09Z</time>
      </trkpt>
      <trkpt lat="43.88017" lon="3.6754">
        <ele>645.18</ele>
        <time>2015-01-17T13:10:17Z</time>
      </trkpt>
      <trkpt lat="43.88016" lon="3.67543">
        <ele>645.18</ele>
        <time>2015-01-17T13:10:19Z</time>
      </trkpt>
      <trkpt lat="43.88015" lon="3.67551">
        <ele>644.7</ele>
        <time>2015-01-17T13:10:26Z</time>
      </trkpt>
      <trkpt lat="43.88014" lon="3.67558">
        <ele>644.22</ele>
        <time>2015-01-17T13:10:30Z</time>
      </trkpt>
      <trkpt lat="43.88015" lon="3.67563">
        <ele>643.74</ele>
        <time>2015-01-17T13:10:33Z</time>
      </trkpt>
      <trkpt lat="43.88014" lon="3.67568">
        <ele>643.26</ele>
        <time>2015-01-17T13:10:36Z</time>
      </trkpt>
      <trkpt lat="43.88013" lon="3.67583">
        <ele>643.26</ele>
        <time>2015-01-17T13:10:44Z</time>
      </trkpt>
      <trkpt lat="43.88012" lon="3.6759">
        <ele>642.3</ele>
        <time>2015-01-17T13:10:49Z</time>
      </trkpt>
      <trkpt lat="43.88012" lon="3.67597">
        <ele>642.3</ele>
        <time>2015-01-17T13:10:53Z</time>
      </trkpt>
      <trkpt lat="43.88011" lon="3.67602">
        <ele>641.82</ele>
        <time>2015-01-17T13:10:57Z</time>
      </trkpt>
      <trkpt lat="43.88012" lon="3.67605">
        <ele>641.82</ele>
        <time>2015-01-17T13:10:59Z</time>
      </trkpt>
      <trkpt lat="43.88007" lon="3.67618">
        <ele>641.82</ele>
        <time>2015-01-17T13:11:08Z</time>
      </trkpt>
      <trkpt lat="43.88003" lon="3.67622">
        <ele>641.82</ele>
        <time>2015-01-17T13:11:12Z</time>
      </trkpt>
      <trkpt lat="43.87997" lon="3.6763">
        <ele>641.34</ele>
        <time>2015-01-17T13:11:20Z</time>
      </trkpt>
      <trkpt lat="43.87983" lon="3.67638">
        <ele>642.3</ele>
        <time>2015-01-17T13:11:37Z</time>
      </trkpt>
      <trkpt lat="43.87975" lon="3.67637">
        <ele>642.3</ele>
        <time>2015-01-17T13:11:45Z</time>
      </trkpt>
      <trkpt lat="43.87966" lon="3.67637">
        <ele>641.82</ele>
        <time>2015-01-17T13:11:58Z</time>
      </trkpt>
      <trkpt lat="43.87961" lon="3.67642">
        <ele>640.38</ele>
        <time>2015-01-17T13:12:06Z</time>
      </trkpt>
      <trkpt lat="43.87952" lon="3.67646">
        <ele>639.89</ele>
        <time>2015-01-17T13:12:16Z</time>
      </trkpt>
      <trkpt lat="43.87943" lon="3.67654">
        <ele>637.97</ele>
        <time>2015-01-17T13:12:29Z</time>
      </trkpt>
      <trkpt lat="43.87933" lon="3.67666">
        <ele>635.57</ele>
        <time>2015-01-17T13:12:44Z</time>
      </trkpt>
      <trkpt lat="43.87932" lon="3.67669">
        <ele>635.57</ele>
        <time>2015-01-17T13:12:47Z</time>
      </trkpt>
      <trkpt lat="43.87931" lon="3.67674">
        <ele>635.09</ele>
        <time>2015-01-17T13:12:50Z</time>
      </trkpt>
      <trkpt lat="43.87919" lon="3.67681">
        <ele>634.13</ele>
        <time>2015-01-17T13:13:06Z</time>
      </trkpt>
      <trkpt lat="43.87908" lon="3.67683">
        <ele>632.2</ele>
        <time>2015-01-17T13:13:17Z</time>
      </trkpt>
      <trkpt lat="43.87899" lon="3.67687">
        <ele>630.28</ele>
        <time>2015-01-17T13:13:27Z</time>
      </trkpt>
      <trkpt lat="43.87887" lon="3.67694">
        <ele>627.88</ele>
        <time>2015-01-17T13:13:41Z</time>
      </trkpt>
      <trkpt lat="43.87876" lon="3.67706">
        <ele>625.96</ele>
        <time>2015-01-17T13:13:56Z</time>
      </trkpt>
      <trkpt lat="43.87873" lon="3.6771">
        <ele>625.47</ele>
        <time>2015-01-17T13:14:02Z</time>
      </trkpt>
      <trkpt lat="43.87865" lon="3.67708">
        <ele>622.11</ele>
        <time>2015-01-17T13:14:19Z</time>
      </trkpt>
      <trkpt lat="43.87855" lon="3.67707">
        <ele>619.23</ele>
        <time>2015-01-17T13:14:34Z</time>
      </trkpt>
      <trkpt lat="43.87852" lon="3.67704">
        <ele>618.26</ele>
        <time>2015-01-17T13:14:38Z</time>
      </trkpt>
      <trkpt lat="43.87841" lon="3.67706">
        <ele>616.34</ele>
        <time>2015-01-17T13:14:52Z</time>
      </trkpt>
      <trkpt lat="43.87835" lon="3.67705">
        <ele>616.34</ele>
        <time>2015-01-17T13:14:56Z</time>
      </trkpt>
      <trkpt lat="43.87824" lon="3.67699">
        <ele>615.86</ele>
        <time>2015-01-17T13:15:11Z</time>
      </trkpt>
      <trkpt lat="43.87819" lon="3.67701">
        <ele>614.42</ele>
        <time>2015-01-17T13:15:19Z</time>
      </trkpt>
      <trkpt lat="43.87811" lon="3.67703">
        <ele>612.5</ele>
        <time>2015-01-17T13:15:26Z</time>
      </trkpt>
      <trkpt lat="43.87798" lon="3.67701">
        <ele>609.61</ele>
        <time>2015-01-17T13:15:42Z</time>
      </trkpt>
      <trkpt lat="43.87787" lon="3.67701">
        <ele>606.25</ele>
        <time>2015-01-17T13:15:54Z</time>
      </trkpt>
      <trkpt lat="43.87775" lon="3.677">
        <ele>603.36</ele>
        <time>2015-01-17T13:16:05Z</time>
      </trkpt>
      <trkpt lat="43.87774" lon="3.67699">
        <ele>603.36</ele>
        <time>2015-01-17T13:16:06Z</time>
      </trkpt>
      <trkpt lat="43.87759" lon="3.67699">
        <ele>600.96</ele>
        <time>2015-01-17T13:16:16Z</time>
      </trkpt>
      <trkpt lat="43.87751" lon="3.67701">
        <ele>597.6</ele>
        <time>2015-01-17T13:16:26Z</time>
      </trkpt>
      <trkpt lat="43.87741" lon="3.67704">
        <ele>596.64</ele>
        <time>2015-01-17T13:16:35Z</time>
      </trkpt>
      <trkpt lat="43.87735" lon="3.67706">
        <ele>596.15</ele>
        <time>2015-01-17T13:16:39Z</time>
      </trkpt>
      <trkpt lat="43.87725" lon="3.67703">
        <ele>595.19</ele>
        <time>2015-01-17T13:16:51Z</time>
      </trkpt>
      <trkpt lat="43.87707" lon="3.67696">
        <ele>592.79</ele>
        <time>2015-01-17T13:17:10Z</time>
      </trkpt>
      <trkpt lat="43.87693" lon="3.67689">
        <ele>591.35</ele>
        <time>2015-01-17T13:17:25Z</time>
      </trkpt>
      <trkpt lat="43.87691" lon="3.67687">
        <ele>591.83</ele>
        <time>2015-01-17T13:17:28Z</time>
      </trkpt>
      <trkpt lat="43.87688" lon="3.67687">
        <ele>591.35</ele>
        <time>2015-01-17T13:17:30Z</time>
      </trkpt>
      <trkpt lat="43.87679" lon="3.67687">
        <ele>589.43</ele>
        <time>2015-01-17T13:17:38Z</time>
      </trkpt>
      <trkpt lat="43.87673" lon="3.67687">
        <ele>589.43</ele>
        <time>2015-01-17T13:17:44Z</time>
      </trkpt>
      <trkpt lat="43.87659" lon="3.67685">
        <ele>587.5</ele>
        <time>2015-01-17T13:17:59Z</time>
      </trkpt>
      <trkpt lat="43.87646" lon="3.67683">
        <ele>585.1</ele>
        <time>2015-01-17T13:18:13Z</time>
      </trkpt>
      <trkpt lat="43.8763" lon="3.67683">
        <ele>582.22</ele>
        <time>2015-01-17T13:18:26Z</time>
      </trkpt>
      <trkpt lat="43.87627" lon="3.67684">
        <ele>581.73</ele>
        <time>2015-01-17T13:18:28Z</time>
      </trkpt>
      <trkpt lat="43.8761" lon="3.67691">
        <ele>579.33</ele>
        <time>2015-01-17T13:18:47Z</time>
      </trkpt>
      <trkpt lat="43.87599" lon="3.67691">
        <ele>577.89</ele>
        <time>2015-01-17T13:18:58Z</time>
      </trkpt>
      <trkpt lat="43.87586" lon="3.6769">
        <ele>575.49</ele>
        <time>2015-01-17T13:19:10Z</time>
      </trkpt>
      <trkpt lat="43.87573" lon="3.67687">
        <ele>574.04</ele>
        <time>2015-01-17T13:19:23Z</time>
      </trkpt>
      <trkpt lat="43.87565" lon="3.6769">
        <ele>572.12</ele>
        <time>2015-01-17T13:19:31Z</time>
      </trkpt>
      <trkpt lat="43.87558" lon="3.67695">
        <ele>571.64</ele>
        <time>2015-01-17T13:19:38Z</time>
      </trkpt>
      <trkpt lat="43.87553" lon="3.67701">
        <ele>570.68</ele>
        <time>2015-01-17T13:19:44Z</time>
      </trkpt>
      <trkpt lat="43.87547" lon="3.67714">
        <ele>568.76</ele>
        <time>2015-01-17T13:19:55Z</time>
      </trkpt>
      <trkpt lat="43.8754" lon="3.67725">
        <ele>567.32</ele>
        <time>2015-01-17T13:20:06Z</time>
      </trkpt>
      <trkpt lat="43.87539" lon="3.67733">
        <ele>566.83</ele>
        <time>2015-01-17T13:20:10Z</time>
      </trkpt>
      <trkpt lat="43.87538" lon="3.67748">
        <ele>565.39</ele>
        <time>2015-01-17T13:20:20Z</time>
      </trkpt>
      <trkpt lat="43.87536" lon="3.67758">
        <ele>564.91</ele>
        <time>2015-01-17T13:20:27Z</time>
      </trkpt>
      <trkpt lat="43.87532" lon="3.67777">
        <ele>562.03</ele>
        <time>2015-01-17T13:20:42Z</time>
      </trkpt>
      <trkpt lat="43.8753" lon="3.67779">
        <ele>561.55</ele>
        <time>2015-01-17T13:20:44Z</time>
      </trkpt>
      <trkpt lat="43.87528" lon="3.67788">
        <ele>560.59</ele>
        <time>2015-01-17T13:20:52Z</time>
      </trkpt>
      <trkpt lat="43.87519" lon="3.67798">
        <ele>558.18</ele>
        <time>2015-01-17T13:21:06Z</time>
      </trkpt>
      <trkpt lat="43.87508" lon="3.67817">
        <ele>555.3</ele>
        <time>2015-01-17T13:21:24Z</time>
      </trkpt>
      <trkpt lat="43.87507" lon="3.67817">
        <ele>554.82</ele>
        <time>2015-01-17T13:21:26Z</time>
      </trkpt>
      <trkpt lat="43.87494" lon="3.67827">
        <ele>553.38</ele>
        <time>2015-01-17T13:21:40Z</time>
      </trkpt>
      <trkpt lat="43.87492" lon="3.67831">
        <ele>552.41</ele>
        <time>2015-01-17T13:21:43Z</time>
      </trkpt>
      <trkpt lat="43.87479" lon="3.67846">
        <ele>549.53</ele>
        <time>2015-01-17T13:22:00Z</time>
      </trkpt>
      <trkpt lat="43.87475" lon="3.67859">
        <ele>548.09</ele>
        <time>2015-01-17T13:22:16Z</time>
      </trkpt>
      <trkpt lat="43.87475" lon="3.67862">
        <ele>548.09</ele>
        <time>2015-01-17T13:22:19Z</time>
      </trkpt>
      <trkpt lat="43.87473" lon="3.67867">
        <ele>547.13</ele>
        <time>2015-01-17T13:22:23Z</time>
      </trkpt>
      <trkpt lat="43.87469" lon="3.67882">
        <ele>543.76</ele>
        <time>2015-01-17T13:22:38Z</time>
      </trkpt>
      <trkpt lat="43.8746" lon="3.67904">
        <ele>541.36</ele>
        <time>2015-01-17T13:22:55Z</time>
      </trkpt>
      <trkpt lat="43.8746" lon="3.6791">
        <ele>540.4</ele>
        <time>2015-01-17T13:23:00Z</time>
      </trkpt>
      <trkpt lat="43.87466" lon="3.67927">
        <ele>537.51</ele>
        <time>2015-01-17T13:23:13Z</time>
      </trkpt>
      <trkpt lat="43.87467" lon="3.67931">
        <ele>537.03</ele>
        <time>2015-01-17T13:23:16Z</time>
      </trkpt>
      <trkpt lat="43.87469" lon="3.67935">
        <ele>536.55</ele>
        <time>2015-01-17T13:23:19Z</time>
      </trkpt>
      <trkpt lat="43.87471" lon="3.6794">
        <ele>535.59</ele>
        <time>2015-01-17T13:23:23Z</time>
      </trkpt>
      <trkpt lat="43.87474" lon="3.67952">
        <ele>532.23</ele>
        <time>2015-01-17T13:23:37Z</time>
      </trkpt>
      <trkpt lat="43.87473" lon="3.67953">
        <ele>532.23</ele>
        <time>2015-01-17T13:23:38Z</time>
      </trkpt>
      <trkpt lat="43.87473" lon="3.67955">
        <ele>531.75</ele>
        <time>2015-01-17T13:23:39Z</time>
      </trkpt>
      <trkpt lat="43.87466" lon="3.67973">
        <ele>529.82</ele>
        <time>2015-01-17T13:23:57Z</time>
      </trkpt>
      <trkpt lat="43.87456" lon="3.67979">
        <ele>527.9</ele>
        <time>2015-01-17T13:24:09Z</time>
      </trkpt>
      <trkpt lat="43.87449" lon="3.67985">
        <ele>526.46</ele>
        <time>2015-01-17T13:24:17Z</time>
      </trkpt>
      <trkpt lat="43.87438" lon="3.67993">
        <ele>522.61</ele>
        <time>2015-01-17T13:24:31Z</time>
      </trkpt>
      <trkpt lat="43.87433" lon="3.67998">
        <ele>522.13</ele>
        <time>2015-01-17T13:24:36Z</time>
      </trkpt>
      <trkpt lat="43.8743" lon="3.68">
        <ele>521.65</ele>
        <time>2015-01-17T13:24:39Z</time>
      </trkpt>
      <trkpt lat="43.87423" lon="3.68008">
        <ele>519.73</ele>
        <time>2015-01-17T13:24:48Z</time>
      </trkpt>
      <trkpt lat="43.87413" lon="3.68017">
        <ele>517.81</ele>
        <time>2015-01-17T13:24:59Z</time>
      </trkpt>
      <trkpt lat="43.87401" lon="3.68024">
        <ele>515.88</ele>
        <time>2015-01-17T13:25:10Z</time>
      </trkpt>
      <trkpt lat="43.87399" lon="3.68026">
        <ele>515.4</ele>
        <time>2015-01-17T13:25:12Z</time>
      </trkpt>
      <trkpt lat="43.87396" lon="3.68027">
        <ele>514.92</ele>
        <time>2015-01-17T13:25:16Z</time>
      </trkpt>
      <trkpt lat="43.8739" lon="3.68025">
        <ele>514.44</ele>
        <time>2015-01-17T13:25:20Z</time>
      </trkpt>
      <trkpt lat="43.87377" lon="3.68026">
        <ele>511.56</ele>
        <time>2015-01-17T13:25:34Z</time>
      </trkpt>
      <trkpt lat="43.87365" lon="3.68033">
        <ele>509.16</ele>
        <time>2015-01-17T13:25:45Z</time>
      </trkpt>
      <trkpt lat="43.87355" lon="3.68041">
        <ele>507.71</ele>
        <time>2015-01-17T13:25:56Z</time>
      </trkpt>
      <trkpt lat="43.87353" lon="3.68042">
        <ele>507.23</ele>
        <time>2015-01-17T13:25:58Z</time>
      </trkpt>
      <trkpt lat="43.87349" lon="3.68048">
        <ele>506.27</ele>
        <time>2015-01-17T13:26:06Z</time>
      </trkpt>
      <trkpt lat="43.87336" lon="3.68062">
        <ele>504.35</ele>
        <time>2015-01-17T13:26:23Z</time>
      </trkpt>
      <trkpt lat="43.87333" lon="3.68069">
        <ele>503.39</ele>
        <time>2015-01-17T13:26:28Z</time>
      </trkpt>
      <trkpt lat="43.87333" lon="3.68073">
        <ele>503.39</ele>
        <time>2015-01-17T13:26:30Z</time>
      </trkpt>
      <trkpt lat="43.87327" lon="3.68086">
        <ele>503.39</ele>
        <time>2015-01-17T13:26:42Z</time>
      </trkpt>
      <trkpt lat="43.87322" lon="3.68088">
        <ele>503.39</ele>
        <time>2015-01-17T13:26:48Z</time>
      </trkpt>
      <trkpt lat="43.8731" lon="3.68102">
        <ele>501.46</ele>
        <time>2015-01-17T13:27:03Z</time>
      </trkpt>
      <trkpt lat="43.87305" lon="3.68107">
        <ele>500.98</ele>
        <time>2015-01-17T13:27:08Z</time>
      </trkpt>
      <trkpt lat="43.87302" lon="3.68109">
        <ele>500.98</ele>
        <time>2015-01-17T13:27:11Z</time>
      </trkpt>
      <trkpt lat="43.87288" lon="3.68115">
        <ele>500.98</ele>
        <time>2015-01-17T13:27:23Z</time>
      </trkpt>
      <trkpt lat="43.87283" lon="3.6812">
        <ele>500.5</ele>
        <time>2015-01-17T13:27:27Z</time>
      </trkpt>
      <trkpt lat="43.87275" lon="3.68129">
        <ele>500.5</ele>
        <time>2015-01-17T13:27:34Z</time>
      </trkpt>
      <trkpt lat="43.87273" lon="3.68129">
        <ele>500.02</ele>
        <time>2015-01-17T13:27:36Z</time>
      </trkpt>
      <trkpt lat="43.87258" lon="3.68135">
        <ele>498.1</ele>
        <time>2015-01-17T13:27:54Z</time>
      </trkpt>
      <trkpt lat="43.87255" lon="3.68136">
        <ele>497.62</ele>
        <time>2015-01-17T13:27:57Z</time>
      </trkpt>
      <trkpt lat="43.87238" lon="3.68139">
        <ele>496.18</ele>
        <time>2015-01-17T13:28:14Z</time>
      </trkpt>
      <trkpt lat="43.87232" lon="3.68147">
        <ele>494.26</ele>
        <time>2015-01-17T13:28:25Z</time>
      </trkpt>
      <trkpt lat="43.87219" lon="3.68159">
        <ele>491.37</ele>
        <time>2015-01-17T13:28:40Z</time>
      </trkpt>
      <trkpt lat="43.87213" lon="3.68161">
        <ele>488.49</ele>
        <time>2015-01-17T13:28:54Z</time>
      </trkpt>
      <trkpt lat="43.87199" lon="3.6817">
        <ele>487.05</ele>
        <time>2015-01-17T13:29:07Z</time>
      </trkpt>
      <trkpt lat="43.8719" lon="3.68172">
        <ele>488.01</ele>
        <time>2015-01-17T13:29:16Z</time>
      </trkpt>
      <trkpt lat="43.87186" lon="3.68172">
        <ele>488.01</ele>
        <time>2015-01-17T13:29:18Z</time>
      </trkpt>
      <trkpt lat="43.87177" lon="3.68173">
        <ele>488.49</ele>
        <time>2015-01-17T13:29:23Z</time>
      </trkpt>
      <trkpt lat="43.87173" lon="3.68176">
        <ele>487.53</ele>
        <time>2015-01-17T13:29:26Z</time>
      </trkpt>
      <trkpt lat="43.87167" lon="3.68176">
        <ele>487.05</ele>
        <time>2015-01-17T13:29:32Z</time>
      </trkpt>
      <trkpt lat="43.8716" lon="3.68175">
        <ele>485.6</ele>
        <time>2015-01-17T13:29:37Z</time>
      </trkpt>
      <trkpt lat="43.87154" lon="3.68173">
        <ele>485.12</ele>
        <time>2015-01-17T13:29:46Z</time>
      </trkpt>
      <trkpt lat="43.87148" lon="3.68174">
        <ele>484.64</ele>
        <time>2015-01-17T13:29:52Z</time>
      </trkpt>
      <trkpt lat="43.8714" lon="3.68174">
        <ele>484.64</ele>
        <time>2015-01-17T13:29:59Z</time>
      </trkpt>
      <trkpt lat="43.87128" lon="3.68174">
        <ele>484.64</ele>
        <time>2015-01-17T13:30:14Z</time>
      </trkpt>
      <trkpt lat="43.87126" lon="3.6818">
        <ele>485.6</ele>
        <time>2015-01-17T13:30:29Z</time>
      </trkpt>
      <trkpt lat="43.87125" lon="3.68181">
        <ele>485.6</ele>
        <time>2015-01-17T13:30:33Z</time>
      </trkpt>
      <trkpt lat="43.87118" lon="3.6818">
        <ele>484.16</ele>
        <time>2015-01-17T13:30:48Z</time>
      </trkpt>
      <trkpt lat="43.87114" lon="3.68178">
        <ele>485.6</ele>
        <time>2015-01-17T13:31:09Z</time>
      </trkpt>
      <trkpt lat="43.87114" lon="3.68178">
        <ele>485.6</ele>
        <time>2015-01-17T13:31:10Z</time>
      </trkpt>
      <trkpt lat="43.87118" lon="3.68179">
        <ele>485.12</ele>
        <time>2015-01-17T13:31:30Z</time>
      </trkpt>
      <trkpt lat="43.87119" lon="3.68177">
        <ele>484.64</ele>
        <time>2015-01-17T13:31:37Z</time>
      </trkpt>
      <trkpt lat="43.87125" lon="3.68174">
        <ele>483.2</ele>
        <time>2015-01-17T13:31:53Z</time>
      </trkpt>
      <trkpt lat="43.87124" lon="3.68168">
        <ele>480.32</ele>
        <time>2015-01-17T13:32:06Z</time>
      </trkpt>
      <trkpt lat="43.8712" lon="3.6816">
        <ele>477.91</ele>
        <time>2015-01-17T13:32:21Z</time>
      </trkpt>
      <trkpt lat="43.87119" lon="3.68158">
        <ele>477.43</ele>
        <time>2015-01-17T13:32:28Z</time>
      </trkpt>
      <trkpt lat="43.87114" lon="3.68134">
        <ele>474.55</ele>
        <time>2015-01-17T13:32:46Z</time>
      </trkpt>
      <trkpt lat="43.87111" lon="3.68121">
        <ele>471.66</ele>
        <time>2015-01-17T13:32:57Z</time>
      </trkpt>
      <trkpt lat="43.8711" lon="3.68119">
        <ele>471.18</ele>
        <time>2015-01-17T13:32:59Z</time>
      </trkpt>
      <trkpt lat="43.87107" lon="3.68093">
        <ele>467.82</ele>
        <time>2015-01-17T13:33:17Z</time>
      </trkpt>
      <trkpt lat="43.87107" lon="3.68078">
        <ele>464.93</ele>
        <time>2015-01-17T13:33:29Z</time>
      </trkpt>
      <trkpt lat="43.87108" lon="3.68058">
        <ele>462.53</ele>
        <time>2015-01-17T13:33:42Z</time>
      </trkpt>
      <trkpt lat="43.87108" lon="3.68053">
        <ele>462.05</ele>
        <time>2015-01-17T13:33:45Z</time>
      </trkpt>
      <trkpt lat="43.8711" lon="3.68043">
        <ele>459.65</ele>
        <time>2015-01-17T13:33:54Z</time>
      </trkpt>
      <trkpt lat="43.87112" lon="3.68032">
        <ele>458.69</ele>
        <time>2015-01-17T13:34:02Z</time>
      </trkpt>
      <trkpt lat="43.87113" lon="3.68024">
        <ele>457.24</ele>
        <time>2015-01-17T13:34:06Z</time>
      </trkpt>
      <trkpt lat="43.87114" lon="3.68019">
        <ele>456.28</ele>
        <time>2015-01-17T13:34:10Z</time>
      </trkpt>
      <trkpt lat="43.87116" lon="3.68005">
        <ele>452.92</ele>
        <time>2015-01-17T13:34:21Z</time>
      </trkpt>
      <trkpt lat="43.87117" lon="3.67989">
        <ele>449.55</ele>
        <time>2015-01-17T13:34:35Z</time>
      </trkpt>
      <trkpt lat="43.8712" lon="3.67967">
        <ele>446.67</ele>
        <time>2015-01-17T13:34:51Z</time>
      </trkpt>
      <trkpt lat="43.87121" lon="3.67961">
        <ele>445.23</ele>
        <time>2015-01-17T13:34:56Z</time>
      </trkpt>
      <trkpt lat="43.87117" lon="3.67953">
        <ele>442.34</ele>
        <time>2015-01-17T13:35:05Z</time>
      </trkpt>
      <trkpt lat="43.8711" lon="3.67952">
        <ele>438.98</ele>
        <time>2015-01-17T13:35:20Z</time>
      </trkpt>
      <trkpt lat="43.87106" lon="3.67953">
        <ele>438.02</ele>
        <time>2015-01-17T13:35:25Z</time>
      </trkpt>
      <trkpt lat="43.87093" lon="3.67953">
        <ele>434.65</ele>
        <time>2015-01-17T13:35:38Z</time>
      </trkpt>
      <trkpt lat="43.87078" lon="3.67958">
        <ele>431.77</ele>
        <time>2015-01-17T13:35:53Z</time>
      </trkpt>
      <trkpt lat="43.87069" lon="3.67962">
        <ele>428.89</ele>
        <time>2015-01-17T13:36:02Z</time>
      </trkpt>
      <trkpt lat="43.8706" lon="3.67962">
        <ele>427.92</ele>
        <time>2015-01-17T13:36:09Z</time>
      </trkpt>
      <trkpt lat="43.87052" lon="3.67962">
        <ele>426</ele>
        <time>2015-01-17T13:36:15Z</time>
      </trkpt>
      <trkpt lat="43.87049" lon="3.67962">
        <ele>426</ele>
        <time>2015-01-17T13:36:17Z</time>
      </trkpt>
      <trkpt lat="43.87042" lon="3.67965">
        <ele>424.56</ele>
        <time>2015-01-17T13:36:25Z</time>
      </trkpt>
      <trkpt lat="43.8704" lon="3.67965">
        <ele>423.6</ele>
        <time>2015-01-17T13:36:28Z</time>
      </trkpt>
      <trkpt lat="43.87041" lon="3.67957">
        <ele>421.68</ele>
        <time>2015-01-17T13:36:38Z</time>
      </trkpt>
      <trkpt lat="43.87041" lon="3.67954">
        <ele>421.19</ele>
        <time>2015-01-17T13:36:41Z</time>
      </trkpt>
      <trkpt lat="43.87042" lon="3.6795">
        <ele>420.71</ele>
        <time>2015-01-17T13:36:44Z</time>
      </trkpt>
      <trkpt lat="43.87043" lon="3.6794">
        <ele>418.79</ele>
        <time>2015-01-17T13:36:52Z</time>
      </trkpt>
      <trkpt lat="43.87047" lon="3.67932">
        <ele>418.31</ele>
        <time>2015-01-17T13:36:57Z</time>
      </trkpt>
      <trkpt lat="43.87051" lon="3.67919">
        <ele>415.91</ele>
        <time>2015-01-17T13:37:07Z</time>
      </trkpt>
      <trkpt lat="43.87051" lon="3.67915">
        <ele>415.43</ele>
        <time>2015-01-17T13:37:10Z</time>
      </trkpt>
      <trkpt lat="43.87055" lon="3.67895">
        <ele>412.54</ele>
        <time>2015-01-17T13:37:22Z</time>
      </trkpt>
      <trkpt lat="43.87062" lon="3.67875">
        <ele>409.66</ele>
        <time>2015-01-17T13:37:36Z</time>
      </trkpt>
      <trkpt lat="43.87069" lon="3.67864">
        <ele>407.74</ele>
        <time>2015-01-17T13:37:44Z</time>
      </trkpt>
      <trkpt lat="43.87072" lon="3.6786">
        <ele>407.26</ele>
        <time>2015-01-17T13:37:47Z</time>
      </trkpt>
      <trkpt lat="43.87078" lon="3.6785">
        <ele>406.29</ele>
        <time>2015-01-17T13:37:54Z</time>
      </trkpt>
      <trkpt lat="43.87082" lon="3.67845">
        <ele>405.81</ele>
        <time>2015-01-17T13:37:59Z</time>
      </trkpt>
      <trkpt lat="43.87086" lon="3.6784">
        <ele>405.33</ele>
        <time>2015-01-17T13:38:04Z</time>
      </trkpt>
      <trkpt lat="43.87088" lon="3.67835">
        <ele>405.33</ele>
        <time>2015-01-17T13:38:07Z</time>
      </trkpt>
      <trkpt lat="43.87092" lon="3.67825">
        <ele>404.37</ele>
        <time>2015-01-17T13:38:14Z</time>
      </trkpt>
      <trkpt lat="43.87097" lon="3.67815">
        <ele>402.93</ele>
        <time>2015-01-17T13:38:23Z</time>
      </trkpt>
      <trkpt lat="43.87103" lon="3.67803">
        <ele>400.05</ele>
        <time>2015-01-17T13:38:33Z</time>
      </trkpt>
      <trkpt lat="43.87105" lon="3.67797">
        <ele>399.57</ele>
        <time>2015-01-17T13:38:37Z</time>
      </trkpt>
      <trkpt lat="43.87107" lon="3.67792">
        <ele>399.08</ele>
        <time>2015-01-17T13:38:40Z</time>
      </trkpt>
      <trkpt lat="43.87108" lon="3.67789">
        <ele>398.6</ele>
        <time>2015-01-17T13:38:42Z</time>
      </trkpt>
      <trkpt lat="43.87112" lon="3.67776">
        <ele>397.64</ele>
        <time>2015-01-17T13:38:52Z</time>
      </trkpt>
      <trkpt lat="43.87114" lon="3.67769">
        <ele>397.16</ele>
        <time>2015-01-17T13:38:56Z</time>
      </trkpt>
      <trkpt lat="43.87118" lon="3.67762">
        <ele>396.68</ele>
        <time>2015-01-17T13:39:01Z</time>
      </trkpt>
      <trkpt lat="43.87123" lon="3.67747">
        <ele>395.72</ele>
        <time>2015-01-17T13:39:10Z</time>
      </trkpt>
      <trkpt lat="43.8713" lon="3.67732">
        <ele>393.8</ele>
        <time>2015-01-17T13:39:19Z</time>
      </trkpt>
      <trkpt lat="43.87136" lon="3.67719">
        <ele>392.36</ele>
        <time>2015-01-17T13:39:27Z</time>
      </trkpt>
      <trkpt lat="43.87136" lon="3.67706">
        <ele>390.43</ele>
        <time>2015-01-17T13:39:36Z</time>
      </trkpt>
      <trkpt lat="43.87131" lon="3.67703">
        <ele>389.47</ele>
        <time>2015-01-17T13:39:42Z</time>
      </trkpt>
      <trkpt lat="43.87119" lon="3.67711">
        <ele>387.07</ele>
        <time>2015-01-17T13:39:55Z</time>
      </trkpt>
      <trkpt lat="43.87104" lon="3.67723">
        <ele>384.18</ele>
        <time>2015-01-17T13:40:12Z</time>
      </trkpt>
      <trkpt lat="43.87092" lon="3.67734">
        <ele>381.3</ele>
        <time>2015-01-17T13:40:27Z</time>
      </trkpt>
      <trkpt lat="43.87087" lon="3.67738">
        <ele>380.34</ele>
        <time>2015-01-17T13:40:33Z</time>
      </trkpt>
      <trkpt lat="43.87079" lon="3.67743">
        <ele>378.42</ele>
        <time>2015-01-17T13:40:42Z</time>
      </trkpt>
      <trkpt lat="43.87065" lon="3.67754">
        <ele>374.57</ele>
        <time>2015-01-17T13:40:58Z</time>
      </trkpt>
      <trkpt lat="43.87048" lon="3.67762">
        <ele>372.65</ele>
        <time>2015-01-17T13:41:13Z</time>
      </trkpt>
      <trkpt lat="43.87033" lon="3.67768">
        <ele>369.76</ele>
        <time>2015-01-17T13:41:27Z</time>
      </trkpt>
      <trkpt lat="43.87027" lon="3.6777">
        <ele>368.8</ele>
        <time>2015-01-17T13:41:31Z</time>
      </trkpt>
      <trkpt lat="43.87025" lon="3.67771">
        <ele>368.32</ele>
        <time>2015-01-17T13:41:33Z</time>
      </trkpt>
      <trkpt lat="43.87019" lon="3.67774">
        <ele>367.84</ele>
        <time>2015-01-17T13:41:38Z</time>
      </trkpt>
      <trkpt lat="43.87013" lon="3.67777">
        <ele>366.88</ele>
        <time>2015-01-17T13:41:46Z</time>
      </trkpt>
      <trkpt lat="43.86998" lon="3.67778">
        <ele>364</ele>
        <time>2015-01-17T13:42:01Z</time>
      </trkpt>
      <trkpt lat="43.86983" lon="3.67779">
        <ele>361.11</ele>
        <time>2015-01-17T13:42:17Z</time>
      </trkpt>
      <trkpt lat="43.8697" lon="3.67776">
        <ele>358.71</ele>
        <time>2015-01-17T13:42:32Z</time>
      </trkpt>
      <trkpt lat="43.86959" lon="3.67777">
        <ele>357.27</ele>
        <time>2015-01-17T13:42:41Z</time>
      </trkpt>
      <trkpt lat="43.86951" lon="3.67779">
        <ele>355.83</ele>
        <time>2015-01-17T13:42:48Z</time>
      </trkpt>
      <trkpt lat="43.86936" lon="3.67776">
        <ele>352.94</ele>
        <time>2015-01-17T13:43:03Z</time>
      </trkpt>
      <trkpt lat="43.86932" lon="3.67773">
        <ele>352.46</ele>
        <time>2015-01-17T13:43:07Z</time>
      </trkpt>
      <trkpt lat="43.86923" lon="3.67771">
        <ele>350.54</ele>
        <time>2015-01-17T13:43:14Z</time>
      </trkpt>
      <trkpt lat="43.8692" lon="3.67771">
        <ele>350.06</ele>
        <time>2015-01-17T13:43:16Z</time>
      </trkpt>
      <trkpt lat="43.86916" lon="3.6777">
        <ele>349.58</ele>
        <time>2015-01-17T13:43:19Z</time>
      </trkpt>
      <trkpt lat="43.86906" lon="3.67776">
        <ele>347.65</ele>
        <time>2015-01-17T13:43:27Z</time>
      </trkpt>
      <trkpt lat="43.86894" lon="3.67782">
        <ele>344.77</ele>
        <time>2015-01-17T13:43:43Z</time>
      </trkpt>
      <trkpt lat="43.86889" lon="3.67785">
        <ele>343.81</ele>
        <time>2015-01-17T13:43:48Z</time>
      </trkpt>
      <trkpt lat="43.86874" lon="3.67786">
        <ele>341.41</ele>
        <time>2015-01-17T13:44:03Z</time>
      </trkpt>
      <trkpt lat="43.86871" lon="3.67787">
        <ele>340.92</ele>
        <time>2015-01-17T13:44:08Z</time>
      </trkpt>
      <trkpt lat="43.86861" lon="3.67788">
        <ele>339.48</ele>
        <time>2015-01-17T13:44:16Z</time>
      </trkpt>
      <trkpt lat="43.86854" lon="3.67793">
        <ele>339</ele>
        <time>2015-01-17T13:44:22Z</time>
      </trkpt>
      <trkpt lat="43.86832" lon="3.6781">
        <ele>338.04</ele>
        <time>2015-01-17T13:44:37Z</time>
      </trkpt>
      <trkpt lat="43.86832" lon="3.67812">
        <ele>338.04</ele>
        <time>2015-01-17T13:44:38Z</time>
      </trkpt>
      <trkpt lat="43.8683" lon="3.6782">
        <ele>337.08</ele>
        <time>2015-01-17T13:44:43Z</time>
      </trkpt>
      <trkpt lat="43.86823" lon="3.67852">
        <ele>334.68</ele>
        <time>2015-01-17T13:45:03Z</time>
      </trkpt>
      <trkpt lat="43.86821" lon="3.67858">
        <ele>334.2</ele>
        <time>2015-01-17T13:45:07Z</time>
      </trkpt>
      <trkpt lat="43.86813" lon="3.67886">
        <ele>332.75</ele>
        <time>2015-01-17T13:45:26Z</time>
      </trkpt>
      <trkpt lat="43.86813" lon="3.67888">
        <ele>332.27</ele>
        <time>2015-01-17T13:45:27Z</time>
      </trkpt>
      <trkpt lat="43.86805" lon="3.67905">
        <ele>331.31</ele>
        <time>2015-01-17T13:45:40Z</time>
      </trkpt>
      <trkpt lat="43.86803" lon="3.67908">
        <ele>331.31</ele>
        <time>2015-01-17T13:45:43Z</time>
      </trkpt>
      <trkpt lat="43.86795" lon="3.67917">
        <ele>329.87</ele>
        <time>2015-01-17T13:45:51Z</time>
      </trkpt>
      <trkpt lat="43.86789" lon="3.67925">
        <ele>329.39</ele>
        <time>2015-01-17T13:45:58Z</time>
      </trkpt>
      <trkpt lat="43.86781" lon="3.67939">
        <ele>328.43</ele>
        <time>2015-01-17T13:46:09Z</time>
      </trkpt>
      <trkpt lat="43.86774" lon="3.67955">
        <ele>327.47</ele>
        <time>2015-01-17T13:46:19Z</time>
      </trkpt>
      <trkpt lat="43.8677" lon="3.6797">
        <ele>328.43</ele>
        <time>2015-01-17T13:46:27Z</time>
      </trkpt>
      <trkpt lat="43.86767" lon="3.67999">
        <ele>329.39</ele>
        <time>2015-01-17T13:46:43Z</time>
      </trkpt>
      <trkpt lat="43.86769" lon="3.68019">
        <ele>329.39</ele>
        <time>2015-01-17T13:46:54Z</time>
      </trkpt>
      <trkpt lat="43.86775" lon="3.6806">
        <ele>330.35</ele>
        <time>2015-01-17T13:47:17Z</time>
      </trkpt>
      <trkpt lat="43.86781" lon="3.68093">
        <ele>330.35</ele>
        <time>2015-01-17T13:47:37Z</time>
      </trkpt>
      <trkpt lat="43.86787" lon="3.68123">
        <ele>331.79</ele>
        <time>2015-01-17T13:47:54Z</time>
      </trkpt>
      <trkpt lat="43.8679" lon="3.68148">
        <ele>332.27</ele>
        <time>2015-01-17T13:48:10Z</time>
      </trkpt>
      <trkpt lat="43.86789" lon="3.68153">
        <ele>332.27</ele>
        <time>2015-01-17T13:48:14Z</time>
      </trkpt>
      <trkpt lat="43.8679" lon="3.68156">
        <ele>331.31</ele>
        <time>2015-01-17T13:48:17Z</time>
      </trkpt>
      <trkpt lat="43.86791" lon="3.68163">
        <ele>331.31</ele>
        <time>2015-01-17T13:48:21Z</time>
      </trkpt>
      <trkpt lat="43.86793" lon="3.68174">
        <ele>331.31</ele>
        <time>2015-01-17T13:48:28Z</time>
      </trkpt>
      <trkpt lat="43.86794" lon="3.68179">
        <ele>331.31</ele>
        <time>2015-01-17T13:48:31Z</time>
      </trkpt>
      <trkpt lat="43.86799" lon="3.68195">
        <ele>332.27</ele>
        <time>2015-01-17T13:48:42Z</time>
      </trkpt>
      <trkpt lat="43.86804" lon="3.68208">
        <ele>333.23</ele>
        <time>2015-01-17T13:48:51Z</time>
      </trkpt>
      <trkpt lat="43.86807" lon="3.68214">
        <ele>333.23</ele>
        <time>2015-01-17T13:48:55Z</time>
      </trkpt>
      <trkpt lat="43.86816" lon="3.68238">
        <ele>335.16</ele>
        <time>2015-01-17T13:49:15Z</time>
      </trkpt>
      <trkpt lat="43.86816" lon="3.68239">
        <ele>335.16</ele>
        <time>2015-01-17T13:49:16Z</time>
      </trkpt>
      <trkpt lat="43.86821" lon="3.68254">
        <ele>333.23</ele>
        <time>2015-01-17T13:49:29Z</time>
      </trkpt>
      <trkpt lat="43.86816" lon="3.68273">
        <ele>330.83</ele>
        <time>2015-01-17T13:49:48Z</time>
      </trkpt>
      <trkpt lat="43.86819" lon="3.68285">
        <ele>331.31</ele>
        <time>2015-01-17T13:50:05Z</time>
      </trkpt>
      <trkpt lat="43.8682" lon="3.68287">
        <ele>331.31</ele>
        <time>2015-01-17T13:50:48Z</time>
      </trkpt>
      <trkpt lat="43.8682" lon="3.68285">
        <ele>331.79</ele>
        <time>2015-01-17T13:51:02Z</time>
      </trkpt>
      <trkpt lat="43.8682" lon="3.68283">
        <ele>327.47</ele>
        <time>2015-01-17T13:51:10Z</time>
      </trkpt>
      <trkpt lat="43.8682" lon="3.68283">
        <ele>329.87</ele>
        <time>2015-01-17T13:51:11Z</time>
      </trkpt>
      <trkpt lat="43.8682" lon="3.68283">
        <ele>331.31</ele>
        <time>2015-01-17T13:51:13Z</time>
      </trkpt>
      <trkpt lat="43.86819" lon="3.68283">
        <ele>335.16</ele>
        <time>2015-01-17T13:51:16Z</time>
      </trkpt>
      <trkpt lat="43.86819" lon="3.68283">
        <ele>331.79</ele>
        <time>2015-01-17T13:51:17Z</time>
      </trkpt>
      <trkpt lat="43.86819" lon="3.68283">
        <ele>331.31</ele>
        <time>2015-01-17T13:51:18Z</time>
      </trkpt>
      <trkpt lat="43.8682" lon="3.68281">
        <ele>330.83</ele>
        <time>2015-01-17T13:51:36Z</time>
      </trkpt>
      <trkpt lat="43.86819" lon="3.68278">
        <ele>327.95</ele>
        <time>2015-01-17T13:51:46Z</time>
      </trkpt>
      <trkpt lat="43.86808" lon="3.68285">
        <ele>326.02</ele>
        <time>2015-01-17T13:52:04Z</time>
      </trkpt>
      <trkpt lat="43.86807" lon="3.68283">
        <ele>326.02</ele>
        <time>2015-01-17T13:52:10Z</time>
      </trkpt>
      <trkpt lat="43.86805" lon="3.68282">
        <ele>325.54</ele>
        <time>2015-01-17T13:52:12Z</time>
      </trkpt>
      <trkpt lat="43.86802" lon="3.68277">
        <ele>325.06</ele>
        <time>2015-01-17T13:52:18Z</time>
      </trkpt>
      <trkpt lat="43.868" lon="3.68275">
        <ele>324.1</ele>
        <time>2015-01-17T13:52:21Z</time>
      </trkpt>
      <trkpt lat="43.86797" lon="3.68272">
        <ele>323.62</ele>
        <time>2015-01-17T13:52:24Z</time>
      </trkpt>
      <trkpt lat="43.86796" lon="3.68274">
        <ele>323.14</ele>
        <time>2015-01-17T13:52:26Z</time>
      </trkpt>
      <trkpt lat="43.86795" lon="3.68294">
        <ele>320.74</ele>
        <time>2015-01-17T13:52:44Z</time>
      </trkpt>
      <trkpt lat="43.86796" lon="3.68303">
        <ele>319.78</ele>
        <time>2015-01-17T13:52:49Z</time>
      </trkpt>
      <trkpt lat="43.86795" lon="3.68306">
        <ele>319.3</ele>
        <time>2015-01-17T13:52:53Z</time>
      </trkpt>
      <trkpt lat="43.86794" lon="3.68308">
        <ele>318.81</ele>
        <time>2015-01-17T13:52:58Z</time>
      </trkpt>
      <trkpt lat="43.86795" lon="3.68315">
        <ele>318.33</ele>
        <time>2015-01-17T13:53:02Z</time>
      </trkpt>
      <trkpt lat="43.86797" lon="3.68323">
        <ele>317.85</ele>
        <time>2015-01-17T13:53:06Z</time>
      </trkpt>
      <trkpt lat="43.86798" lon="3.68336">
        <ele>316.89</ele>
        <time>2015-01-17T13:53:13Z</time>
      </trkpt>
      <trkpt lat="43.86802" lon="3.68371">
        <ele>313.53</ele>
        <time>2015-01-17T13:53:32Z</time>
      </trkpt>
      <trkpt lat="43.86802" lon="3.68373">
        <ele>313.53</ele>
        <time>2015-01-17T13:53:33Z</time>
      </trkpt>
      <trkpt lat="43.86803" lon="3.68381">
        <ele>312.57</ele>
        <time>2015-01-17T13:53:37Z</time>
      </trkpt>
      <trkpt lat="43.86801" lon="3.68412">
        <ele>309.2</ele>
        <time>2015-01-17T13:53:53Z</time>
      </trkpt>
      <trkpt lat="43.86801" lon="3.68415">
        <ele>309.2</ele>
        <time>2015-01-17T13:53:55Z</time>
      </trkpt>
      <trkpt lat="43.868" lon="3.68419">
        <ele>308.72</ele>
        <time>2015-01-17T13:53:57Z</time>
      </trkpt>
      <trkpt lat="43.86799" lon="3.68434">
        <ele>305.36</ele>
        <time>2015-01-17T13:54:11Z</time>
      </trkpt>
      <trkpt lat="43.86792" lon="3.68436">
        <ele>303.91</ele>
        <time>2015-01-17T13:54:25Z</time>
      </trkpt>
      <trkpt lat="43.86785" lon="3.68442">
        <ele>300.07</ele>
        <time>2015-01-17T13:54:36Z</time>
      </trkpt>
      <trkpt lat="43.86781" lon="3.6845">
        <ele>296.7</ele>
        <time>2015-01-17T13:54:46Z</time>
      </trkpt>
      <trkpt lat="43.86776" lon="3.68459">
        <ele>293.82</ele>
        <time>2015-01-17T13:54:57Z</time>
      </trkpt>
      <trkpt lat="43.86766" lon="3.6847">
        <ele>290.46</ele>
        <time>2015-01-17T13:55:11Z</time>
      </trkpt>
      <trkpt lat="43.86758" lon="3.68483">
        <ele>287.57</ele>
        <time>2015-01-17T13:55:24Z</time>
      </trkpt>
      <trkpt lat="43.86756" lon="3.6849">
        <ele>286.61</ele>
        <time>2015-01-17T13:55:29Z</time>
      </trkpt>
      <trkpt lat="43.86749" lon="3.68508">
        <ele>282.77</ele>
        <time>2015-01-17T13:55:44Z</time>
      </trkpt>
      <trkpt lat="43.86745" lon="3.68528">
        <ele>279.4</ele>
        <time>2015-01-17T13:55:58Z</time>
      </trkpt>
      <trkpt lat="43.86743" lon="3.68552">
        <ele>278.44</ele>
        <time>2015-01-17T13:56:16Z</time>
      </trkpt>
      <trkpt lat="43.86744" lon="3.68556">
        <ele>277.96</ele>
        <time>2015-01-17T13:56:32Z</time>
      </trkpt>
      <trkpt lat="43.86745" lon="3.68558">
        <ele>277.48</ele>
        <time>2015-01-17T13:56:34Z</time>
      </trkpt>
      <trkpt lat="43.86746" lon="3.68566">
        <ele>276.52</ele>
        <time>2015-01-17T13:56:39Z</time>
      </trkpt>
      <trkpt lat="43.8675" lon="3.68578">
        <ele>275.07</ele>
        <time>2015-01-17T13:56:48Z</time>
      </trkpt>
      <trkpt lat="43.86753" lon="3.68589">
        <ele>274.11</ele>
        <time>2015-01-17T13:56:55Z</time>
      </trkpt>
      <trkpt lat="43.86764" lon="3.6862">
        <ele>270.75</ele>
        <time>2015-01-17T13:57:14Z</time>
      </trkpt>
      <trkpt lat="43.86768" lon="3.68631">
        <ele>268.83</ele>
        <time>2015-01-17T13:57:23Z</time>
      </trkpt>
      <trkpt lat="43.8677" lon="3.68635">
        <ele>268.35</ele>
        <time>2015-01-17T13:57:26Z</time>
      </trkpt>
      <trkpt lat="43.86778" lon="3.68658">
        <ele>265.46</ele>
        <time>2015-01-17T13:57:43Z</time>
      </trkpt>
      <trkpt lat="43.86782" lon="3.68678">
        <ele>263.06</ele>
        <time>2015-01-17T13:57:57Z</time>
      </trkpt>
      <trkpt lat="43.86788" lon="3.68703">
        <ele>260.17</ele>
        <time>2015-01-17T13:58:13Z</time>
      </trkpt>
      <trkpt lat="43.86789" lon="3.68705">
        <ele>260.17</ele>
        <time>2015-01-17T13:58:14Z</time>
      </trkpt>
      <trkpt lat="43.86796" lon="3.68722">
        <ele>258.25</ele>
        <time>2015-01-17T13:58:25Z</time>
      </trkpt>
      <trkpt lat="43.86798" lon="3.68731">
        <ele>257.29</ele>
        <time>2015-01-17T13:58:31Z</time>
      </trkpt>
      <trkpt lat="43.868" lon="3.68736">
        <ele>257.29</ele>
        <time>2015-01-17T13:58:34Z</time>
      </trkpt>
      <trkpt lat="43.868" lon="3.68755">
        <ele>254.41</ele>
        <time>2015-01-17T13:58:45Z</time>
      </trkpt>
      <trkpt lat="43.86806" lon="3.68776">
        <ele>251.52</ele>
        <time>2015-01-17T13:59:01Z</time>
      </trkpt>
      <trkpt lat="43.86811" lon="3.68803">
        <ele>248.16</ele>
        <time>2015-01-17T13:59:17Z</time>
      </trkpt>
      <trkpt lat="43.86816" lon="3.68819">
        <ele>246.72</ele>
        <time>2015-01-17T13:59:28Z</time>
      </trkpt>
      <trkpt lat="43.86818" lon="3.68827">
        <ele>246.23</ele>
        <time>2015-01-17T13:59:33Z</time>
      </trkpt>
      <trkpt lat="43.86823" lon="3.68851">
        <ele>242.39</ele>
        <time>2015-01-17T13:59:50Z</time>
      </trkpt>
      <trkpt lat="43.86831" lon="3.68873">
        <ele>239.99</ele>
        <time>2015-01-17T14:00:08Z</time>
      </trkpt>
      <trkpt lat="43.86833" lon="3.68878">
        <ele>239.99</ele>
        <time>2015-01-17T14:00:12Z</time>
      </trkpt>
      <trkpt lat="43.86839" lon="3.68893">
        <ele>238.54</ele>
        <time>2015-01-17T14:00:27Z</time>
      </trkpt>
      <trkpt lat="43.86844" lon="3.6892">
        <ele>237.58</ele>
        <time>2015-01-17T14:00:47Z</time>
      </trkpt>
      <trkpt lat="43.86848" lon="3.68939">
        <ele>237.1</ele>
        <time>2015-01-17T14:00:56Z</time>
      </trkpt>
      <trkpt lat="43.86851" lon="3.68961">
        <ele>237.58</ele>
        <time>2015-01-17T14:01:08Z</time>
      </trkpt>
      <trkpt lat="43.86865" lon="3.68994">
        <ele>238.06</ele>
        <time>2015-01-17T14:01:26Z</time>
      </trkpt>
      <trkpt lat="43.86871" lon="3.69003">
        <ele>238.54</ele>
        <time>2015-01-17T14:01:32Z</time>
      </trkpt>
      <trkpt lat="43.86876" lon="3.69006">
        <ele>239.02</ele>
        <time>2015-01-17T14:01:36Z</time>
      </trkpt>
      <trkpt lat="43.86891" lon="3.69018">
        <ele>239.99</ele>
        <time>2015-01-17T14:01:48Z</time>
      </trkpt>
      <trkpt lat="43.86896" lon="3.69023">
        <ele>240.47</ele>
        <time>2015-01-17T14:01:53Z</time>
      </trkpt>
      <trkpt lat="43.86916" lon="3.69047">
        <ele>240.47</ele>
        <time>2015-01-17T14:02:15Z</time>
      </trkpt>
      <trkpt lat="43.86927" lon="3.69061">
        <ele>238.54</ele>
        <time>2015-01-17T14:02:29Z</time>
      </trkpt>
      <trkpt lat="43.86925" lon="3.69068">
        <ele>237.58</ele>
        <time>2015-01-17T14:02:37Z</time>
      </trkpt>
      <trkpt lat="43.86918" lon="3.69085">
        <ele>235.66</ele>
        <time>2015-01-17T14:02:56Z</time>
      </trkpt>
      <trkpt lat="43.86918" lon="3.69086">
        <ele>235.66</ele>
        <time>2015-01-17T14:02:57Z</time>
      </trkpt>
      <trkpt lat="43.86915" lon="3.69089">
        <ele>235.18</ele>
        <time>2015-01-17T14:03:00Z</time>
      </trkpt>
      <trkpt lat="43.8691" lon="3.69098">
        <ele>234.22</ele>
        <time>2015-01-17T14:03:07Z</time>
      </trkpt>
      <trkpt lat="43.86907" lon="3.691">
        <ele>233.26</ele>
        <time>2015-01-17T14:03:10Z</time>
      </trkpt>
      <trkpt lat="43.86905" lon="3.69109">
        <ele>232.78</ele>
        <time>2015-01-17T14:03:14Z</time>
      </trkpt>
      <trkpt lat="43.86906" lon="3.69114">
        <ele>232.3</ele>
        <time>2015-01-17T14:03:17Z</time>
      </trkpt>
      <trkpt lat="43.86915" lon="3.69133">
        <ele>229.89</ele>
        <time>2015-01-17T14:03:30Z</time>
      </trkpt>
      <trkpt lat="43.86925" lon="3.69141">
        <ele>227.49</ele>
        <time>2015-01-17T14:03:45Z</time>
      </trkpt>
      <trkpt lat="43.86929" lon="3.69142">
        <ele>226.05</ele>
        <time>2015-01-17T14:03:51Z</time>
      </trkpt>
      <trkpt lat="43.86943" lon="3.69148">
        <ele>222.68</ele>
        <time>2015-01-17T14:04:05Z</time>
      </trkpt>
      <trkpt lat="43.86944" lon="3.69148">
        <ele>223.16</ele>
        <time>2015-01-17T14:04:06Z</time>
      </trkpt>
      <trkpt lat="43.8696" lon="3.69157">
        <ele>218.84</ele>
        <time>2015-01-17T14:04:21Z</time>
      </trkpt>
      <trkpt lat="43.86961" lon="3.69158">
        <ele>218.84</ele>
        <time>2015-01-17T14:04:22Z</time>
      </trkpt>
      <trkpt lat="43.86966" lon="3.69161">
        <ele>217.4</ele>
        <time>2015-01-17T14:04:26Z</time>
      </trkpt>
      <trkpt lat="43.8697" lon="3.69163">
        <ele>216.91</ele>
        <time>2015-01-17T14:04:30Z</time>
      </trkpt>
      <trkpt lat="43.86989" lon="3.69172">
        <ele>214.03</ele>
        <time>2015-01-17T14:04:46Z</time>
      </trkpt>
      <trkpt lat="43.86995" lon="3.69176">
        <ele>212.59</ele>
        <time>2015-01-17T14:04:53Z</time>
      </trkpt>
      <trkpt lat="43.86999" lon="3.69176">
        <ele>211.15</ele>
        <time>2015-01-17T14:04:56Z</time>
      </trkpt>
      <trkpt lat="43.87004" lon="3.69177">
        <ele>209.7</ele>
        <time>2015-01-17T14:05:02Z</time>
      </trkpt>
      <trkpt lat="43.8701" lon="3.6918">
        <ele>208.26</ele>
        <time>2015-01-17T14:05:08Z</time>
      </trkpt>
      <trkpt lat="43.87013" lon="3.69184">
        <ele>207.78</ele>
        <time>2015-01-17T14:05:13Z</time>
      </trkpt>
      <trkpt lat="43.87018" lon="3.69188">
        <ele>207.3</ele>
        <time>2015-01-17T14:05:18Z</time>
      </trkpt>
      <trkpt lat="43.87023" lon="3.69198">
        <ele>206.34</ele>
        <time>2015-01-17T14:05:35Z</time>
      </trkpt>
      <trkpt lat="43.87024" lon="3.69203">
        <ele>206.82</ele>
        <time>2015-01-17T14:05:39Z</time>
      </trkpt>
      <trkpt lat="43.87028" lon="3.69238">
        <ele>206.82</ele>
        <time>2015-01-17T14:05:58Z</time>
      </trkpt>
      <trkpt lat="43.87034" lon="3.69267">
        <ele>207.3</ele>
        <time>2015-01-17T14:06:13Z</time>
      </trkpt>
      <trkpt lat="43.87046" lon="3.69285">
        <ele>209.22</ele>
        <time>2015-01-17T14:06:25Z</time>
      </trkpt>
      <trkpt lat="43.87054" lon="3.69311">
        <ele>209.7</ele>
        <time>2015-01-17T14:06:43Z</time>
      </trkpt>
      <trkpt lat="43.87055" lon="3.69319">
        <ele>209.22</ele>
        <time>2015-01-17T14:06:48Z</time>
      </trkpt>
      <trkpt lat="43.87065" lon="3.69352">
        <ele>206.34</ele>
        <time>2015-01-17T14:07:09Z</time>
      </trkpt>
      <trkpt lat="43.8707" lon="3.69372">
        <ele>205.38</ele>
        <time>2015-01-17T14:07:22Z</time>
      </trkpt>
      <trkpt lat="43.87076" lon="3.69387">
        <ele>204.9</ele>
        <time>2015-01-17T14:07:32Z</time>
      </trkpt>
      <trkpt lat="43.87088" lon="3.69421">
        <ele>204.42</ele>
        <time>2015-01-17T14:07:53Z</time>
      </trkpt>
      <trkpt lat="43.8709" lon="3.69435">
        <ele>204.42</ele>
        <time>2015-01-17T14:08:00Z</time>
      </trkpt>
      <trkpt lat="43.87097" lon="3.69468">
        <ele>205.38</ele>
        <time>2015-01-17T14:08:16Z</time>
      </trkpt>
      <trkpt lat="43.87097" lon="3.69473">
        <ele>205.38</ele>
        <time>2015-01-17T14:08:19Z</time>
      </trkpt>
      <trkpt lat="43.87101" lon="3.69504">
        <ele>206.34</ele>
        <time>2015-01-17T14:08:35Z</time>
      </trkpt>
      <trkpt lat="43.87106" lon="3.69536">
        <ele>206.82</ele>
        <time>2015-01-17T14:08:54Z</time>
      </trkpt>
      <trkpt lat="43.87113" lon="3.69576">
        <ele>208.26</ele>
        <time>2015-01-17T14:09:15Z</time>
      </trkpt>
      <trkpt lat="43.87123" lon="3.69611">
        <ele>209.7</ele>
        <time>2015-01-17T14:09:35Z</time>
      </trkpt>
      <trkpt lat="43.87129" lon="3.69625">
        <ele>210.19</ele>
        <time>2015-01-17T14:09:43Z</time>
      </trkpt>
      <trkpt lat="43.87131" lon="3.69632">
        <ele>210.19</ele>
        <time>2015-01-17T14:09:47Z</time>
      </trkpt>
      <trkpt lat="43.87146" lon="3.69659">
        <ele>209.7</ele>
        <time>2015-01-17T14:10:06Z</time>
      </trkpt>
      <trkpt lat="43.87151" lon="3.69668">
        <ele>209.7</ele>
        <time>2015-01-17T14:10:11Z</time>
      </trkpt>
      <trkpt lat="43.8716" lon="3.69683">
        <ele>209.7</ele>
        <time>2015-01-17T14:10:22Z</time>
      </trkpt>
      <trkpt lat="43.8717" lon="3.69703">
        <ele>209.7</ele>
        <time>2015-01-17T14:10:37Z</time>
      </trkpt>
      <trkpt lat="43.87184" lon="3.69732">
        <ele>208.74</ele>
        <time>2015-01-17T14:10:55Z</time>
      </trkpt>
      <trkpt lat="43.872" lon="3.69758">
        <ele>209.22</ele>
        <time>2015-01-17T14:11:10Z</time>
      </trkpt>
      <trkpt lat="43.87203" lon="3.69761">
        <ele>209.22</ele>
        <time>2015-01-17T14:11:13Z</time>
      </trkpt>
      <trkpt lat="43.87209" lon="3.69772">
        <ele>209.22</ele>
        <time>2015-01-17T14:11:21Z</time>
      </trkpt>
      <trkpt lat="43.87213" lon="3.6978">
        <ele>209.22</ele>
        <time>2015-01-17T14:11:25Z</time>
      </trkpt>
      <trkpt lat="43.87215" lon="3.69786">
        <ele>209.22</ele>
        <time>2015-01-17T14:11:28Z</time>
      </trkpt>
      <trkpt lat="43.8722" lon="3.69795">
        <ele>209.22</ele>
        <time>2015-01-17T14:11:33Z</time>
      </trkpt>
      <trkpt lat="43.87223" lon="3.69802">
        <ele>208.74</ele>
        <time>2015-01-17T14:11:37Z</time>
      </trkpt>
      <trkpt lat="43.87229" lon="3.69811">
        <ele>207.78</ele>
        <time>2015-01-17T14:11:44Z</time>
      </trkpt>
      <trkpt lat="43.87236" lon="3.69829">
        <ele>205.86</ele>
        <time>2015-01-17T14:11:58Z</time>
      </trkpt>
      <trkpt lat="43.87239" lon="3.69854">
        <ele>202.49</ele>
        <time>2015-01-17T14:12:15Z</time>
      </trkpt>
      <trkpt lat="43.8724" lon="3.69884">
        <ele>200.57</ele>
        <time>2015-01-17T14:12:31Z</time>
      </trkpt>
      <trkpt lat="43.87242" lon="3.69915">
        <ele>199.61</ele>
        <time>2015-01-17T14:12:48Z</time>
      </trkpt>
      <trkpt lat="43.87255" lon="3.69941">
        <ele>198.17</ele>
        <time>2015-01-17T14:13:07Z</time>
      </trkpt>
      <trkpt lat="43.87262" lon="3.69951">
        <ele>197.21</ele>
        <time>2015-01-17T14:13:16Z</time>
      </trkpt>
      <trkpt lat="43.87275" lon="3.69968">
        <ele>194.8</ele>
        <time>2015-01-17T14:13:31Z</time>
      </trkpt>
      <trkpt lat="43.87285" lon="3.69977">
        <ele>193.36</ele>
        <time>2015-01-17T14:13:41Z</time>
      </trkpt>
      <trkpt lat="43.87288" lon="3.69979">
        <ele>192.88</ele>
        <time>2015-01-17T14:13:43Z</time>
      </trkpt>
      <trkpt lat="43.87289" lon="3.69982">
        <ele>192.88</ele>
        <time>2015-01-17T14:13:45Z</time>
      </trkpt>
      <trkpt lat="43.87307" lon="3.7001">
        <ele>190.48</ele>
        <time>2015-01-17T14:14:04Z</time>
      </trkpt>
      <trkpt lat="43.87316" lon="3.70028">
        <ele>190.48</ele>
        <time>2015-01-17T14:14:16Z</time>
      </trkpt>
      <trkpt lat="43.87321" lon="3.70035">
        <ele>190</ele>
        <time>2015-01-17T14:14:22Z</time>
      </trkpt>
      <trkpt lat="43.87324" lon="3.70039">
        <ele>190</ele>
        <time>2015-01-17T14:14:25Z</time>
      </trkpt>
      <trkpt lat="43.87346" lon="3.70054">
        <ele>190.96</ele>
        <time>2015-01-17T14:14:46Z</time>
      </trkpt>
      <trkpt lat="43.87359" lon="3.7006">
        <ele>190.96</ele>
        <time>2015-01-17T14:14:56Z</time>
      </trkpt>
      <trkpt lat="43.87373" lon="3.70069">
        <ele>190.96</ele>
        <time>2015-01-17T14:15:08Z</time>
      </trkpt>
      <trkpt lat="43.8738" lon="3.70076">
        <ele>191.44</ele>
        <time>2015-01-17T14:15:15Z</time>
      </trkpt>
      <trkpt lat="43.87399" lon="3.70102">
        <ele>191.92</ele>
        <time>2015-01-17T14:15:38Z</time>
      </trkpt>
      <trkpt lat="43.8741" lon="3.70121">
        <ele>192.88</ele>
        <time>2015-01-17T14:15:59Z</time>
      </trkpt>
      <trkpt lat="43.87411" lon="3.70122">
        <ele>192.88</ele>
        <time>2015-01-17T14:16:00Z</time>
      </trkpt>
      <trkpt lat="43.87421" lon="3.70142">
        <ele>194.8</ele>
        <time>2015-01-17T14:16:17Z</time>
      </trkpt>
      <trkpt lat="43.8743" lon="3.70164">
        <ele>196.73</ele>
        <time>2015-01-17T14:16:35Z</time>
      </trkpt>
      <trkpt lat="43.87436" lon="3.70177">
        <ele>197.21</ele>
        <time>2015-01-17T14:16:50Z</time>
      </trkpt>
      <trkpt lat="43.87438" lon="3.70188">
        <ele>197.21</ele>
        <time>2015-01-17T14:16:58Z</time>
      </trkpt>
      <trkpt lat="43.87444" lon="3.70193">
        <ele>198.65</ele>
        <time>2015-01-17T14:17:08Z</time>
      </trkpt>
      <trkpt lat="43.87455" lon="3.70193">
        <ele>199.61</ele>
        <time>2015-01-17T14:17:28Z</time>
      </trkpt>
      <trkpt lat="43.87456" lon="3.70193">
        <ele>198.65</ele>
        <time>2015-01-17T14:17:41Z</time>
      </trkpt>
      <trkpt lat="43.87453" lon="3.70194">
        <ele>198.17</ele>
        <time>2015-01-17T14:17:47Z</time>
      </trkpt>
      <trkpt lat="43.87447" lon="3.70193">
        <ele>197.21</ele>
        <time>2015-01-17T14:17:55Z</time>
      </trkpt>
      <trkpt lat="43.87445" lon="3.70189">
        <ele>197.69</ele>
        <time>2015-01-17T14:17:59Z</time>
      </trkpt>
      <trkpt lat="43.87438" lon="3.70175">
        <ele>196.25</ele>
        <time>2015-01-17T14:18:11Z</time>
      </trkpt>
      <trkpt lat="43.87442" lon="3.70172">
        <ele>194.8</ele>
        <time>2015-01-17T14:18:20Z</time>
      </trkpt>
      <trkpt lat="43.87448" lon="3.70171">
        <ele>193.36</ele>
        <time>2015-01-17T14:18:26Z</time>
      </trkpt>
      <trkpt lat="43.87462" lon="3.70165">
        <ele>190.96</ele>
        <time>2015-01-17T14:18:44Z</time>
      </trkpt>
      <trkpt lat="43.87473" lon="3.70154">
        <ele>189.52</ele>
        <time>2015-01-17T14:19:01Z</time>
      </trkpt>
      <trkpt lat="43.87473" lon="3.70153">
        <ele>188.56</ele>
        <time>2015-01-17T14:19:07Z</time>
      </trkpt>
      <trkpt lat="43.87473" lon="3.70153">
        <ele>188.56</ele>
        <time>2015-01-17T14:19:10Z</time>
      </trkpt>
      <trkpt lat="43.87479" lon="3.70151">
        <ele>185.67</ele>
        <time>2015-01-17T14:19:21Z</time>
      </trkpt>
      <trkpt lat="43.87482" lon="3.70149">
        <ele>185.67</ele>
        <time>2015-01-17T14:19:23Z</time>
      </trkpt>
      <trkpt lat="43.87488" lon="3.7015">
        <ele>184.71</ele>
        <time>2015-01-17T14:19:27Z</time>
      </trkpt>
      <trkpt lat="43.87507" lon="3.70148">
        <ele>181.35</ele>
        <time>2015-01-17T14:19:39Z</time>
      </trkpt>
      <trkpt lat="43.87524" lon="3.70161">
        <ele>178.46</ele>
        <time>2015-01-17T14:19:51Z</time>
      </trkpt>
      <trkpt lat="43.87535" lon="3.70168">
        <ele>174.62</ele>
        <time>2015-01-17T14:20:05Z</time>
      </trkpt>
      <trkpt lat="43.87541" lon="3.70168">
        <ele>171.73</ele>
        <time>2015-01-17T14:20:17Z</time>
      </trkpt>
      <trkpt lat="43.87542" lon="3.70168">
        <ele>172.21</ele>
        <time>2015-01-17T14:20:18Z</time>
      </trkpt>
      <trkpt lat="43.87545" lon="3.70167">
        <ele>171.73</ele>
        <time>2015-01-17T14:20:20Z</time>
      </trkpt>
      <trkpt lat="43.87557" lon="3.70171">
        <ele>167.41</ele>
        <time>2015-01-17T14:20:35Z</time>
      </trkpt>
      <trkpt lat="43.87564" lon="3.70181">
        <ele>165.48</ele>
        <time>2015-01-17T14:20:50Z</time>
      </trkpt>
      <trkpt lat="43.87573" lon="3.70182">
        <ele>163.08</ele>
        <time>2015-01-17T14:21:04Z</time>
      </trkpt>
      <trkpt lat="43.87577" lon="3.70177">
        <ele>161.64</ele>
        <time>2015-01-17T14:21:10Z</time>
      </trkpt>
      <trkpt lat="43.87587" lon="3.70179">
        <ele>159.24</ele>
        <time>2015-01-17T14:21:24Z</time>
      </trkpt>
      <trkpt lat="43.87589" lon="3.70186">
        <ele>158.27</ele>
        <time>2015-01-17T14:21:28Z</time>
      </trkpt>
      <trkpt lat="43.87592" lon="3.70193">
        <ele>156.83</ele>
        <time>2015-01-17T14:21:34Z</time>
      </trkpt>
      <trkpt lat="43.87601" lon="3.70187">
        <ele>154.43</ele>
        <time>2015-01-17T14:21:48Z</time>
      </trkpt>
      <trkpt lat="43.87602" lon="3.70183">
        <ele>152.99</ele>
        <time>2015-01-17T14:21:51Z</time>
      </trkpt>
      <trkpt lat="43.876" lon="3.70172">
        <ele>151.54</ele>
        <time>2015-01-17T14:21:58Z</time>
      </trkpt>
      <trkpt lat="43.876" lon="3.70169">
        <ele>151.06</ele>
        <time>2015-01-17T14:22:00Z</time>
      </trkpt>
      <trkpt lat="43.87598" lon="3.70166">
        <ele>150.58</ele>
        <time>2015-01-17T14:22:03Z</time>
      </trkpt>
      <trkpt lat="43.87595" lon="3.70161">
        <ele>149.14</ele>
        <time>2015-01-17T14:22:07Z</time>
      </trkpt>
      <trkpt lat="43.87594" lon="3.70156">
        <ele>148.66</ele>
        <time>2015-01-17T14:22:10Z</time>
      </trkpt>
      <trkpt lat="43.87595" lon="3.70145">
        <ele>146.26</ele>
        <time>2015-01-17T14:22:19Z</time>
      </trkpt>
      <trkpt lat="43.87606" lon="3.70135">
        <ele>143.37</ele>
        <time>2015-01-17T14:22:29Z</time>
      </trkpt>
      <trkpt lat="43.87622" lon="3.70149">
        <ele>140.01</ele>
        <time>2015-01-17T14:22:46Z</time>
      </trkpt>
      <trkpt lat="43.87637" lon="3.70164">
        <ele>139.05</ele>
        <time>2015-01-17T14:23:04Z</time>
      </trkpt>
      <trkpt lat="43.87643" lon="3.7017">
        <ele>139.05</ele>
        <time>2015-01-17T14:23:11Z</time>
      </trkpt>
      <trkpt lat="43.87652" lon="3.70172">
        <ele>138.09</ele>
        <time>2015-01-17T14:23:22Z</time>
      </trkpt>
      <trkpt lat="43.87657" lon="3.70174">
        <ele>138.09</ele>
        <time>2015-01-17T14:23:28Z</time>
      </trkpt>
      <trkpt lat="43.87679" lon="3.70185">
        <ele>138.57</ele>
        <time>2015-01-17T14:23:48Z</time>
      </trkpt>
      <trkpt lat="43.8768" lon="3.70185">
        <ele>138.57</ele>
        <time>2015-01-17T14:23:49Z</time>
      </trkpt>
      <trkpt lat="43.87699" lon="3.70198">
        <ele>139.05</ele>
        <time>2015-01-17T14:24:02Z</time>
      </trkpt>
      <trkpt lat="43.87729" lon="3.70198">
        <ele>140.01</ele>
        <time>2015-01-17T14:24:22Z</time>
      </trkpt>
      <trkpt lat="43.87735" lon="3.70197">
        <ele>139.53</ele>
        <time>2015-01-17T14:24:28Z</time>
      </trkpt>
      <trkpt lat="43.87765" lon="3.7017">
        <ele>140.01</ele>
        <time>2015-01-17T14:24:49Z</time>
      </trkpt>
      <trkpt lat="43.87766" lon="3.7017">
        <ele>140.01</ele>
        <time>2015-01-17T14:24:50Z</time>
      </trkpt>
      <trkpt lat="43.87777" lon="3.70166">
        <ele>140.01</ele>
        <time>2015-01-17T14:24:58Z</time>
      </trkpt>
      <trkpt lat="43.87781" lon="3.70165">
        <ele>140.01</ele>
        <time>2015-01-17T14:25:01Z</time>
      </trkpt>
      <trkpt lat="43.87796" lon="3.70158">
        <ele>140.49</ele>
        <time>2015-01-17T14:25:15Z</time>
      </trkpt>
      <trkpt lat="43.87805" lon="3.70156">
        <ele>137.13</ele>
        <time>2015-01-17T14:25:19Z</time>
      </trkpt>
      <trkpt lat="43.87806" lon="3.70156">
        <ele>141.93</ele>
        <time>2015-01-17T14:25:20Z</time>
      </trkpt>
      <trkpt lat="43.87815" lon="3.70152">
        <ele>140.49</ele>
        <time>2015-01-17T14:25:37Z</time>
      </trkpt>
      <trkpt lat="43.87816" lon="3.70156">
        <ele>140.49</ele>
        <time>2015-01-17T14:26:03Z</time>
      </trkpt>
    </trkseg>
  </trk>
</gpx>